Observation data for Dell City 1N on 05/24/2020      Previous  Date  Next       Current Mesonet Observations  Soil Data  Daily Summary Page  Observations in Plain Language
KDC1 240500Z 30011KT 16/M02 A2985 RMK A01 T01641020  RH  028%=      5-min Rain = 0
KDC1 240501Z 30010KT 16/M02 A2985 RMK A01 T01641023  RH  028%=      5-min Rain = 0
KDC1 240502Z 30009KT 17/M03 A2985 RMK A01 T01661026  RH  027%=      5-min Rain = 0
KDC1 240503Z 30009KT 17/M03 A2985 RMK A01 T01671026  RH  027%=      5-min Rain = 0
KDC1 240504Z 30010KT 17/M03 A2985 RMK A01 T01671026  RH  027%=      5-min Rain = 0
KDC1 240505Z 29010KT 17/M03 A2985 RMK A01 T01661026  RH  027%=      5-min Rain = 0
KDC1 240506Z 29010KT 17/M03 A2985 RMK A01 T01661026  RH  027%=      5-min Rain = 0
KDC1 240507Z 30010KT 17/M03 A2985 RMK A01 T01651027  RH  027%=      5-min Rain = 0
KDC1 240508Z 30011KT 17/M03 A2985 RMK A01 T01661027  RH  027%=      5-min Rain = 0
KDC1 240509Z 29011KT 17/M03 A2985 RMK A01 T01671027  RH  026%=      5-min Rain = 0
KDC1 240510Z 29011KT 17/M03 A2985 RMK A01 T01681028  RH  026%=      5-min Rain = 0
KDC1 240511Z 29010KT 17/M03 A2985 RMK A01 T01691028  RH  026%=      5-min Rain = 0
KDC1 240512Z 29010KT 17/M03 A2985 RMK A01 T01701027  RH  026%=      5-min Rain = 0
KDC1 240513Z 29010KT 17/M03 A2985 RMK A01 T01701026  RH  026%=      5-min Rain = 0
KDC1 240514Z 29010KT 17/M02 A2985 RMK A01 T01701024  RH  027%=      5-min Rain = 0
KDC1 240515Z 29009KT 17/M02 A2985 RMK A01 T01681023  RH  027%=      5-min Rain = 0
KDC1 240516Z 30009KT 17/M02 A2985 RMK A01 T01681023  RH  027%=      5-min Rain = 0
KDC1 240517Z 29009KT 17/M02 A2985 RMK A01 T01661022  RH  028%=      5-min Rain = 0
KDC1 240518Z 29009KT 17/M02 A2985 RMK A01 T01661020  RH  028%=      5-min Rain = 0
KDC1 240519Z 29009KT 17/M02 A2985 RMK A01 T01651020  RH  028%=      5-min Rain = 0
KDC1 240520Z 29008KT 16/M02 A2985 RMK A01 T01641019  RH  029%=      5-min Rain = 0
KDC1 240521Z 29009KT 16/M02 A2985 RMK A01 T01631018  RH  029%=      5-min Rain = 0
KDC1 240522Z 29008KT 16/M02 A2985 RMK A01 T01611017  RH  029%=      5-min Rain = 0
KDC1 240523Z 29008KT 16/M02 A2985 RMK A01 T01591016  RH  030%=      5-min Rain = 0
KDC1 240524Z 29008KT 16/M02 A2985 RMK A01 T01581015  RH  030%=      5-min Rain = 0
KDC1 240525Z 29008KT 16/M01 A2985 RMK A01 T01571014  RH  031%=      5-min Rain = 0
KDC1 240526Z 29008KT 16/M01 A2985 RMK A01 T01561013  RH  031%=      5-min Rain = 0
KDC1 240527Z 29008KT 16/M01 A2985 RMK A01 T01551013  RH  032%=      5-min Rain = 0
KDC1 240528Z 29009KT 16/M01 A2985 RMK A01 T01551013  RH  032%=      5-min Rain = 0
KDC1 240529Z 29008KT 15/M01 A2985 RMK A01 T01541013  RH  032%=      5-min Rain = 0
KDC1 240530Z 29009KT 15/M01 A2985 RMK A01 T01541013  RH  032%=      5-min Rain = 0
KDC1 240531Z 29008KT 15/M01 A2985 RMK A01 T01531013  RH  032%=      5-min Rain = 0
KDC1 240532Z 29009KT 15/M01 A2985 RMK A01 T01531012  RH  032%=      5-min Rain = 0
KDC1 240533Z 29009KT 15/M01 A2985 RMK A01 T01531012  RH  032%=      5-min Rain = 0
KDC1 240534Z 29009KT 15/M01 A2985 RMK A01 T01521013  RH  032%=      5-min Rain = 0
KDC1 240535Z 29008KT 15/M01 A2985 RMK A01 T01521014  RH  032%=      5-min Rain = 0
KDC1 240536Z 29009KT 15/M02 A2985 RMK A01 T01531015  RH  032%=      5-min Rain = 0
KDC1 240537Z 29008KT 15/M02 A2985 RMK A01 T01531017  RH  031%=      5-min Rain = 0
KDC1 240538Z 29008KT 15/M02 A2985 RMK A01 T01531017  RH  031%=      5-min Rain = 0
KDC1 240539Z 29008KT 15/M02 A2985 RMK A01 T01531018  RH  031%=      5-min Rain = 0
KDC1 240540Z 29008KT 15/M02 A2985 RMK A01 T01531017  RH  031%=      5-min Rain = 0
KDC1 240541Z 29008KT 15/M02 A2985 RMK A01 T01521016  RH  031%=      5-min Rain = 0
KDC1 240542Z 29009KT 15/M02 A2985 RMK A01 T01511016  RH  032%=      5-min Rain = 0
KDC1 240543Z 29008KT 15/M02 A2985 RMK A01 T01501015  RH  032%=      5-min Rain = 0
KDC1 240544Z 29009KT 15/M02 A2985 RMK A01 T01501015  RH  032%=      5-min Rain = 0
KDC1 240545Z 29008KT 15/M01 A2985 RMK A01 T01491014  RH  033%=      5-min Rain = 0
KDC1 240546Z 29008KT 15/M01 A2985 RMK A01 T01481014  RH  033%=      5-min Rain = 0
KDC1 240547Z 30008KT 15/M01 A2985 RMK A01 T01481013  RH  033%=      5-min Rain = 0
KDC1 240548Z 29008KT 15/M01 A2985 RMK A01 T01481014  RH  033%=      5-min Rain = 0
KDC1 240549Z 29007KT 15/M01 A2985 RMK A01 T01471013  RH  033%=      5-min Rain = 0
KDC1 240550Z 29007KT 15/M01 A2985 RMK A01 T01471013  RH  033%=      5-min Rain = 0
KDC1 240551Z 29008KT 15/M01 A2985 RMK A01 T01471012  RH  034%=      5-min Rain = 0
KDC1 240552Z 29009KT 15/M01 A2985 RMK A01 T01471011  RH  034%=      5-min Rain = 0
KDC1 240553Z 29008KT 15/M01 A2985 RMK A01 T01471012  RH  034%=      5-min Rain = 0
KDC1 240554Z 29008KT 15/M01 A2985 RMK A01 T01471012  RH  033%=      5-min Rain = 0
KDC1 240555Z 29009KT 15/M01 A2985 RMK A01 T01471012  RH  034%=      5-min Rain = 0
KDC1 240556Z 29009KT 15/M01 A2985 RMK A01 T01461012  RH  034%=      5-min Rain = 0
KDC1 240557Z 29008KT 15/M01 A2985 RMK A01 T01461013  RH  033%=      5-min Rain = 0
KDC1 240558Z 29008KT 15/M01 A2985 RMK A01 T01461014  RH  033%=      5-min Rain = 0
KDC1 240559Z 29008KT 15/M02 A2985 RMK A01 T01461015  RH  033%=      5-min Rain = 0
KDC1 240600Z 29008KT 15/M02 A2985 RMK A01 T01451015  RH  033%=      5-min Rain = 0
KDC1 240601Z 29008KT 14/M01 A2985 RMK A01 T01441014  RH  034%=      5-min Rain = 0
KDC1 240602Z 29008KT 14/M01 A2985 RMK A01 T01431013  RH  034%=      5-min Rain = 0
KDC1 240603Z 29008KT 14/M01 A2985 RMK A01 T01421014  RH  034%=      5-min Rain = 0
KDC1 240604Z 29008KT 14/M01 A2985 RMK A01 T01411013  RH  034%=      5-min Rain = 0
KDC1 240605Z 29008KT 14/M01 A2986 RMK A01 T01401014  RH  034%=      5-min Rain = 0
KDC1 240606Z 30008KT 14/M02 A2986 RMK A01 T01401015  RH  034%=      5-min Rain = 0
KDC1 240607Z 30008KT 14/M02 A2986 RMK A01 T01401017  RH  034%=      5-min Rain = 0
KDC1 240608Z 30009KT 14/M02 A2986 RMK A01 T01401019  RH  033%=      5-min Rain = 0
KDC1 240609Z 30008KT 14/M02 A2986 RMK A01 T01411022  RH  032%=      5-min Rain = 0
KDC1 240610Z 30008KT 14/M02 A2986 RMK A01 T01421024  RH  032%=      5-min Rain = 0
KDC1 240611Z 29008KT 14/M03 A2986 RMK A01 T01431026  RH  031%=      5-min Rain = 0
KDC1 240612Z 29008KT 15/M03 A2986 RMK A01 T01451026  RH  031%=      5-min Rain = 0
KDC1 240613Z 30008KT 15/M03 A2986 RMK A01 T01451026  RH  031%=      5-min Rain = 0
KDC1 240614Z 30007KT 15/M03 A2986 RMK A01 T01451026  RH  031%=      5-min Rain = 0
KDC1 240615Z 30008KT 15/M03 A2986 RMK A01 T01451026  RH  031%=      5-min Rain = 0
KDC1 240616Z 30008KT 15/M03 A2986 RMK A01 T01451025  RH  031%=      5-min Rain = 0
KDC1 240617Z 29008KT 14/M03 A2986 RMK A01 T01441025  RH  031%=      5-min Rain = 0
KDC1 240618Z 29008KT 14/M03 A2986 RMK A01 T01431025  RH  031%=      5-min Rain = 0
KDC1 240619Z 30008KT 14/M03 A2986 RMK A01 T01431025  RH  031%=      5-min Rain = 0
KDC1 240620Z 30008KT 14/M03 A2986 RMK A01 T01441026  RH  031%=      5-min Rain = 0
KDC1 240621Z 29009KT 15/M03 A2986 RMK A01 T01451027  RH  030%=      5-min Rain = 0
KDC1 240622Z 29009KT 15/M03 A2986 RMK A01 T01461028  RH  030%=      5-min Rain = 0
KDC1 240623Z 29010KT 15/M03 A2986 RMK A01 T01471029  RH  030%=      5-min Rain = 0
KDC1 240624Z 29010KT 15/M03 A2986 RMK A01 T01491031  RH  029%=      5-min Rain = 0
KDC1 240625Z 28009KT 15/M03 A2986 RMK A01 T01511032  RH  028%=      5-min Rain = 0
KDC1 240626Z 28008KT 15/M03 A2986 RMK A01 T01531033  RH  028%=      5-min Rain = 0
KDC1 240627Z 29008KT 15/M03 A2986 RMK A01 T01541033  RH  027%=      5-min Rain = 0
KDC1 240628Z 29008KT 15/M03 A2986 RMK A01 T01541032  RH  027%=      5-min Rain = 0
KDC1 240629Z 29009KT 16/M03 A2986 RMK A01 T01551030  RH  028%=      5-min Rain = 0
KDC1 240630Z 29010KT 16/M03 A2986 RMK A01 T01551029  RH  028%=      5-min Rain = 0
KDC1 240631Z 29010KT 16/M03 A2986 RMK A01 T01551028  RH  028%=      5-min Rain = 0
KDC1 240632Z 29009KT 16/M03 A2986 RMK A01 T01551029  RH  028%=      5-min Rain = 0
KDC1 240633Z 29010KT 16/M03 A2986 RMK A01 T01561029  RH  028%=      5-min Rain = 0
KDC1 240634Z 28009KT 16/M03 A2986 RMK A01 T01571030  RH  028%=      5-min Rain = 0
KDC1 240635Z 28008KT 16/M03 A2986 RMK A01 T01581030  RH  027%=      5-min Rain = 0
KDC1 240636Z 29008KT 16/M03 A2985 RMK A01 T01581029  RH  027%=      5-min Rain = 0
KDC1 240637Z 29009KT 16/M03 A2985 RMK A01 T01581028  RH  028%=      5-min Rain = 0
KDC1 240638Z 29010KT 16/M03 A2985 RMK A01 T01571026  RH  028%=      5-min Rain = 0
KDC1 240639Z 29011KT 16/M03 A2985 RMK A01 T01571025  RH  029%=      5-min Rain = 0
KDC1 240640Z 28010KT 16/M02 A2985 RMK A01 T01571024  RH  029%=      5-min Rain = 0
KDC1 240641Z 29010KT 16/M02 A2985 RMK A01 T01571024  RH  029%=      5-min Rain = 0
KDC1 240642Z 28010KT 16/M03 A2985 RMK A01 T01591025  RH  028%=      5-min Rain = 0
KDC1 240643Z 28008KT 16/M02 A2985 RMK A01 T01601023  RH  028%=      5-min Rain = 0
KDC1 240644Z 29008KT 16/M02 A2986 RMK A01 T01591023  RH  029%=      5-min Rain = 0
KDC1 240645Z 29008KT 16/M02 A2986 RMK A01 T01591021  RH  029%=      5-min Rain = 0
KDC1 240646Z 28009KT 16/M02 A2986 RMK A01 T01581019  RH  030%=      5-min Rain = 0
KDC1 240647Z 28009KT 16/M02 A2986 RMK A01 T01571018  RH  030%=      5-min Rain = 0
KDC1 240648Z 28009KT 16/M02 A2986 RMK A01 T01551017  RH  031%=      5-min Rain = 0
KDC1 240649Z 29008KT 15/M02 A2986 RMK A01 T01541016  RH  031%=      5-min Rain = 0
KDC1 240650Z 28008KT 15/M02 A2986 RMK A01 T01531015  RH  031%=      5-min Rain = 0
KDC1 240651Z 28008KT 15/M02 A2986 RMK A01 T01531015  RH  032%=      5-min Rain = 0
KDC1 240652Z 28008KT 15/M02 A2986 RMK A01 T01541016  RH  031%=      5-min Rain = 0
KDC1 240653Z 28007KT 16/M02 A2986 RMK A01 T01571017  RH  030%=      5-min Rain = 0
KDC1 240654Z 27006KT 16/M02 A2986 RMK A01 T01601018  RH  029%=      5-min Rain = 0
KDC1 240655Z 27005KT 16/M02 A2986 RMK A01 T01641023  RH  028%=      5-min Rain = 0
KDC1 240656Z 25004KT 17/M02 A2986 RMK A01 T01691023  RH  027%=      5-min Rain = 0
KDC1 240657Z 14002KT 17/M01 A2986 RMK A01 T01711014  RH  028%=      5-min Rain = 0
KDC1 240658Z 12005KT 17/01 A2986 RMK A01 T01690010  RH  034%=      5-min Rain = 0
KDC1 240659Z 11003KT 16/01 A2986 RMK A01 T01630014  RH  036%=      5-min Rain = 0
KDC1 240700Z 11003KT 16/02 A2986 RMK A01 T01570015  RH  038%=      5-min Rain = 0
KDC1 240701Z 11004KT 15/02 A2986 RMK A01 T01520018  RH  040%=      5-min Rain = 0
KDC1 240702Z 11006KT 15/02 A2986 RMK A01 T01470018  RH  041%=      5-min Rain = 0
KDC1 240703Z 09003KT 15/01 A2986 RMK A01 T01460014  RH  041%=      5-min Rain = 0
KDC1 240704Z 07003KT 15/01 A2986 RMK A01 T01460006  RH  039%=      5-min Rain = 0
KDC1 240705Z 08003KT 15/M00 A2986 RMK A01 T01491001  RH  036%=      5-min Rain = 0
KDC1 240706Z 09004KT 15/M01 A2986 RMK A01 T01541012  RH  032%=      5-min Rain = 0
KDC1 240707Z 06001KT 16/M02 A2986 RMK A01 T01611016  RH  030%=      5-min Rain = 0
KDC1 240708Z 08001KT 16/M02 A2986 RMK A01 T01631015  RH  030%=      5-min Rain = 0
KDC1 240709Z 12000KT 16/M02 A2986 RMK A01 T01631018  RH  029%=      5-min Rain = 0
KDC1 240710Z 13001KT 17/M02 A2986 RMK A01 T01651021  RH  028%=      5-min Rain = 0
KDC1 240711Z 18000KT 17/M02 A2986 RMK A01 T01671021  RH  028%=      5-min Rain = 0
KDC1 240712Z 16000KT 17/M02 A2987 RMK A01 T01671020  RH  028%=      5-min Rain = 0
KDC1 240713Z 00000KT 17/M03 A2987 RMK A01 T01671025  RH  027%=      5-min Rain = 0
KDC1 240714Z 16001KT 17/M02 A2987 RMK A01 T01681022  RH  027%=      5-min Rain = 0
KDC1 240715Z 15001KT 17/M02 A2987 RMK A01 T01671021  RH  028%=      5-min Rain = 0
KDC1 240716Z 09001KT 17/M02 A2987 RMK A01 T01661021  RH  028%=      5-min Rain = 0
KDC1 240717Z 12002KT 17/M02 A2987 RMK A01 T01661019  RH  028%=      5-min Rain = 0
KDC1 240718Z 14003KT 17/M02 A2987 RMK A01 T01681018  RH  028%=      5-min Rain = 0
KDC1 240719Z 12005KT 17/M02 A2987 RMK A01 T01701015  RH  028%=      5-min Rain = 0
KDC1 240720Z 12004KT 17/M01 A2987 RMK A01 T01711008  RH  030%=      5-min Rain = 0
KDC1 240721Z 13003KT 17/M00 A2987 RMK A01 T01701002  RH  031%=      5-min Rain = 0
KDC1 240722Z 14002KT 17/M00 A2987 RMK A01 T01691002  RH  031%=      5-min Rain = 0
KDC1 240723Z 14003KT 17/M00 A2987 RMK A01 T01681004  RH  031%=      5-min Rain = 0
KDC1 240724Z 13004KT 17/00 A2987 RMK A01 T016800-0  RH  032%=      5-min Rain = 0
KDC1 240725Z 13004KT 17/00 A2987 RMK A01 T01670001  RH  032%=      5-min Rain = 0
KDC1 240726Z 13004KT 17/00 A2987 RMK A01 T01660001  RH  032%=      5-min Rain = 0
KDC1 240727Z 13004KT 17/M00 A2987 RMK A01 T01651002  RH  032%=      5-min Rain = 0
KDC1 240728Z 14005KT 16/M01 A2987 RMK A01 T01641007  RH  031%=      5-min Rain = 0
KDC1 240729Z 14005KT 17/M01 A2987 RMK A01 T01651009  RH  031%=      5-min Rain = 0
KDC1 240730Z 14005KT 16/00 A2987 RMK A01 T016400-0  RH  033%=      5-min Rain = 0
KDC1 240731Z 15003KT 16/00 A2987 RMK A01 T01630000  RH  033%=      5-min Rain = 0
KDC1 240732Z 15003KT 16/M01 A2987 RMK A01 T01621010  RH  031%=      5-min Rain = 0
KDC1 240733Z 16003KT 16/M01 A2987 RMK A01 T01621013  RH  030%=      5-min Rain = 0
KDC1 240734Z 14003KT 16/M01 A2987 RMK A01 T01641013  RH  030%=      5-min Rain = 0
KDC1 240735Z 14003KT 16/M01 A2987 RMK A01 T01641007  RH  031%=      5-min Rain = 0
KDC1 240736Z 15003KT 16/M00 A2987 RMK A01 T01641003  RH  032%=      5-min Rain = 0
KDC1 240737Z 15002KT 16/M01 A2987 RMK A01 T01631011  RH  030%=      5-min Rain = 0
KDC1 240738Z 15003KT 16/M02 A2987 RMK A01 T01631019  RH  029%=      5-min Rain = 0
KDC1 240739Z 14003KT 17/M02 A2987 RMK A01 T01651019  RH  028%=      5-min Rain = 0
KDC1 240740Z 14003KT 17/M02 A2986 RMK A01 T01661021  RH  028%=      5-min Rain = 0
KDC1 240741Z 13003KT 17/M03 A2986 RMK A01 T01681025  RH  027%=      5-min Rain = 0
KDC1 240742Z 14001KT 17/M02 A2986 RMK A01 T01711024  RH  026%=      5-min Rain = 0
KDC1 240743Z 13001KT 17/M02 A2986 RMK A01 T01701022  RH  027%=      5-min Rain = 0
KDC1 240744Z 24000KT 17/M02 A2986 RMK A01 T01681018  RH  028%=      5-min Rain = 0
KDC1 240745Z 22001KT 17/M02 A2986 RMK A01 T01681022  RH  027%=      5-min Rain = 0
KDC1 240746Z 22001KT 17/M02 A2986 RMK A01 T01681017  RH  028%=      5-min Rain = 0
KDC1 240747Z 22001KT 17/M02 A2986 RMK A01 T01661020  RH  028%=      5-min Rain = 0
KDC1 240748Z 19001KT 17/M03 A2986 RMK A01 T01651027  RH  027%=      5-min Rain = 0
KDC1 240749Z 19002KT 17/M03 A2986 RMK A01 T01661027  RH  027%=      5-min Rain = 0
KDC1 240750Z 23002KT 17/M03 A2986 RMK A01 T01661026  RH  027%=      5-min Rain = 0
KDC1 240751Z 22002KT 17/M03 A2986 RMK A01 T01671026  RH  027%=      5-min Rain = 0
KDC1 240752Z 21001KT 17/M03 A2986 RMK A01 T01691025  RH  026%=      5-min Rain = 0
KDC1 240753Z 23001KT 17/M02 A2986 RMK A01 T01701023  RH  027%=      5-min Rain = 0
KDC1 240754Z 24002KT 17/M02 A2986 RMK A01 T01711016  RH  028%=      5-min Rain = 0
KDC1 240755Z 24001KT 17/M02 A2986 RMK A01 T01701019  RH  027%=      5-min Rain = 0
KDC1 240756Z 26000KT 17/M02 A2986 RMK A01 T01691022  RH  027%=      5-min Rain = 0
KDC1 240757Z 32000KT 17/M02 A2986 RMK A01 T01681020  RH  028%=      5-min Rain = 0
KDC1 240758Z 33001KT 17/M02 A2986 RMK A01 T01661017  RH  029%=      5-min Rain = 0
KDC1 240759Z 01002KT 16/M01 A2986 RMK A01 T01631013  RH  030%=      5-min Rain = 0
KDC1 240800Z 02006KT 16/M01 A2986 RMK A01 T01581008  RH  032%=      5-min Rain = 0
KDC1 240801Z 03006KT 15/M00 A2986 RMK A01 T01531002  RH  035%=      5-min Rain = 0
KDC1 240802Z 03005KT 15/00 A2986 RMK A01 T01490001  RH  036%=      5-min Rain = 0
KDC1 240803Z 04004KT 15/00 A2986 RMK A01 T01460002  RH  037%=      5-min Rain = 0
KDC1 240804Z 03003KT 14/00 A2986 RMK A01 T01440002  RH  038%=      5-min Rain = 0
KDC1 240805Z 04003KT 14/00 A2986 RMK A01 T01430002  RH  038%=      5-min Rain = 0
KDC1 240806Z 00002KT 14/00 A2986 RMK A01 T01420001  RH  038%=      5-min Rain = 0
KDC1 240807Z 03003KT 14/00 A2986 RMK A01 T014100-0  RH  038%=      5-min Rain = 0
KDC1 240808Z 01002KT 14/00 A2986 RMK A01 T01400001  RH  039%=      5-min Rain = 0
KDC1 240809Z 31001KT 14/M00 A2986 RMK A01 T01391002  RH  038%=      5-min Rain = 0
KDC1 240810Z 01003KT 14/M00 A2986 RMK A01 T01401004  RH  037%=      5-min Rain = 0
KDC1 240811Z 02004KT 14/M00 A2986 RMK A01 T01421003  RH  037%=      5-min Rain = 0
KDC1 240812Z 02004KT 14/M00 A2986 RMK A01 T01421004  RH  037%=      5-min Rain = 0
KDC1 240813Z 03004KT 14/M00 A2986 RMK A01 T01411004  RH  037%=      5-min Rain = 0
KDC1 240814Z 02004KT 14/M01 A2986 RMK A01 T01411006  RH  036%=      5-min Rain = 0
KDC1 240815Z 05004KT 14/M01 A2986 RMK A01 T01411007  RH  036%=      5-min Rain = 0
KDC1 240816Z 03004KT 14/M01 A2986 RMK A01 T01411012  RH  035%=      5-min Rain = 0
KDC1 240817Z 04003KT 14/M01 A2986 RMK A01 T01421008  RH  036%=      5-min Rain = 0
KDC1 240818Z 35004KT 14/M01 A2986 RMK A01 T01401007  RH  036%=      5-min Rain = 0
KDC1 240819Z 04002KT 14/M01 A2986 RMK A01 T01391011  RH  035%=      5-min Rain = 0
KDC1 240820Z 02004KT 14/M01 A2986 RMK A01 T01391012  RH  035%=      5-min Rain = 0
KDC1 240821Z 05001KT 14/M01 A2986 RMK A01 T01391013  RH  035%=      5-min Rain = 0
KDC1 240822Z 30000KT 14/M01 A2986 RMK A01 T01371012  RH  036%=      5-min Rain = 0
KDC1 240823Z 01003KT 14/M01 A2986 RMK A01 T01361009  RH  037%=      5-min Rain = 0
KDC1 240824Z 03005KT 14/M01 A2986 RMK A01 T01361009  RH  037%=      5-min Rain = 0
KDC1 240825Z 04002KT 14/M01 A2986 RMK A01 T01351008  RH  037%=      5-min Rain = 0
KDC1 240826Z 02001KT 13/M01 A2986 RMK A01 T01321008  RH  038%=      5-min Rain = 0
KDC1 240827Z 01002KT 13/M01 A2987 RMK A01 T01301007  RH  039%=      5-min Rain = 0
KDC1 240828Z 00003KT 13/M01 A2986 RMK A01 T01291008  RH  039%=      5-min Rain = 0
KDC1 240829Z 02003KT 13/M01 A2986 RMK A01 T01291009  RH  038%=      5-min Rain = 0
KDC1 240830Z 04002KT 13/M01 A2987 RMK A01 T01311009  RH  038%=      5-min Rain = 0
KDC1 240831Z 04003KT 13/M01 A2986 RMK A01 T01311010  RH  038%=      5-min Rain = 0
KDC1 240832Z 01003KT 13/M01 A2986 RMK A01 T01311011  RH  038%=      5-min Rain = 0
KDC1 240833Z 36003KT 13/M01 A2986 RMK A01 T01331012  RH  036%=      5-min Rain = 0
KDC1 240834Z 35001KT 14/M01 A2987 RMK A01 T01371013  RH  036%=      5-min Rain = 0
KDC1 240835Z 01002KT 14/M01 A2987 RMK A01 T01371012  RH  036%=      5-min Rain = 0
KDC1 240836Z 04002KT 14/M01 A2987 RMK A01 T01381011  RH  036%=      5-min Rain = 0
KDC1 240837Z 05002KT 14/M01 A2987 RMK A01 T01401011  RH  035%=      5-min Rain = 0
KDC1 240838Z 05001KT 14/M01 A2987 RMK A01 T01401011  RH  035%=      5-min Rain = 0
KDC1 240839Z 05000KT 14/M01 A2987 RMK A01 T01391011  RH  036%=      5-min Rain = 0
KDC1 240840Z 00000KT 14/M01 A2987 RMK A01 T01391010  RH  036%=      5-min Rain = 0
KDC1 240841Z 05000KT 14/M01 A2987 RMK A01 T01391010  RH  036%=      5-min Rain = 0
KDC1 240842Z 05002KT 14/M01 A2987 RMK A01 T01391010  RH  036%=      5-min Rain = 0
KDC1 240843Z 05002KT 14/M01 A2987 RMK A01 T01391010  RH  036%=      5-min Rain = 0
KDC1 240844Z 03002KT 14/M01 A2987 RMK A01 T01381011  RH  036%=      5-min Rain = 0
KDC1 240845Z 06002KT 14/M01 A2987 RMK A01 T01371011  RH  036%=      5-min Rain = 0
KDC1 240846Z 06002KT 14/M01 A2987 RMK A01 T01351012  RH  036%=      5-min Rain = 0
KDC1 240847Z 10000KT 13/M01 A2987 RMK A01 T01341014  RH  036%=      5-min Rain = 0
KDC1 240848Z 07001KT 13/M02 A2987 RMK A01 T01341015  RH  036%=      5-min Rain = 0
KDC1 240849Z 07002KT 13/M02 A2987 RMK A01 T01331015  RH  036%=      5-min Rain = 0
KDC1 240850Z 04002KT 13/M02 A2987 RMK A01 T01331017  RH  035%=      5-min Rain = 0
KDC1 240851Z 02002KT 13/M02 A2987 RMK A01 T01331019  RH  035%=      5-min Rain = 0
KDC1 240852Z 04001KT 13/M02 A2987 RMK A01 T01321019  RH  035%=      5-min Rain = 0
KDC1 240853Z 05003KT 13/M02 A2987 RMK A01 T01321020  RH  035%=      5-min Rain = 0
KDC1 240854Z 05004KT 13/M02 A2987 RMK A01 T01311022  RH  034%=      5-min Rain = 0
KDC1 240855Z 03003KT 13/M02 A2987 RMK A01 T01311022  RH  034%=      5-min Rain = 0
KDC1 240856Z 08002KT 13/M02 A2987 RMK A01 T01311023  RH  034%=      5-min Rain = 0
KDC1 240857Z 05002KT 13/M02 A2987 RMK A01 T01311023  RH  034%=      5-min Rain = 0
KDC1 240858Z 04005KT 13/M03 A2987 RMK A01 T01311026  RH  033%=      5-min Rain = 0
KDC1 240859Z 03005KT 13/M03 A2987 RMK A01 T01331031  RH  032%=      5-min Rain = 0
KDC1 240900Z 04003KT 14/M03 A2987 RMK A01 T01371033  RH  031%=      5-min Rain = 0
KDC1 240901Z 00003KT 14/M03 A2987 RMK A01 T01381030  RH  031%=      5-min Rain = 0
KDC1 240902Z 00004KT 14/M03 A2987 RMK A01 T01381028  RH  032%=      5-min Rain = 0
KDC1 240903Z 01004KT 14/M03 A2987 RMK A01 T01361028  RH  032%=      5-min Rain = 0
KDC1 240904Z 36004KT 13/M03 A2987 RMK A01 T01341028  RH  032%=      5-min Rain = 0
KDC1 240905Z 29004KT 13/M03 A2987 RMK A01 T01321025  RH  033%=      5-min Rain = 0
KDC1 240906Z 34003KT 13/M03 A2988 RMK A01 T01301032  RH  032%=      5-min Rain = 0
KDC1 240907Z 32003KT 13/M03 A2988 RMK A01 T01311032  RH  032%=      5-min Rain = 0
KDC1 240908Z 33006KT 13/M03 A2988 RMK A01 T01301029  RH  033%=      5-min Rain = 0
KDC1 240909Z 36007KT 13/M03 A2988 RMK A01 T01291031  RH  033%=      5-min Rain = 0
KDC1 240910Z 36007KT 13/M03 A2988 RMK A01 T01291033  RH  032%=      5-min Rain = 0
KDC1 240911Z 03005KT 14/M04 A2987 RMK A01 T01361042  RH  029%=      5-min Rain = 0
KDC1 240912Z 03007KT 14/M04 A2987 RMK A01 T01421039  RH  028%=      5-min Rain = 0
KDC1 240913Z 02004KT 14/M04 A2987 RMK A01 T01431038  RH  028%=      5-min Rain = 0
KDC1 240914Z 01003KT 14/M04 A2987 RMK A01 T01431038  RH  028%=      5-min Rain = 0
KDC1 240915Z 01004KT 14/M04 A2987 RMK A01 T01431038  RH  028%=      5-min Rain = 0
KDC1 240916Z 01003KT 14/M04 A2987 RMK A01 T01421037  RH  029%=      5-min Rain = 0
KDC1 240917Z 36001KT 14/M04 A2987 RMK A01 T01411037  RH  029%=      5-min Rain = 0
KDC1 240918Z 22001KT 14/M04 A2987 RMK A01 T01411038  RH  029%=      5-min Rain = 0
KDC1 240919Z 24001KT 14/M04 A2987 RMK A01 T01411039  RH  028%=      5-min Rain = 0
KDC1 240920Z 27002KT 14/M04 A2988 RMK A01 T01411038  RH  029%=      5-min Rain = 0
KDC1 240921Z 33001KT 14/M04 A2987 RMK A01 T01421041  RH  028%=      5-min Rain = 0
KDC1 240922Z 04003KT 14/M04 A2987 RMK A01 T01441041  RH  027%=      5-min Rain = 0
KDC1 240923Z 03006KT 15/M04 A2987 RMK A01 T01471042  RH  027%=      5-min Rain = 0
KDC1 240924Z 03006KT 15/M04 A2987 RMK A01 T01511043  RH  026%=      5-min Rain = 0
KDC1 240925Z 02005KT 16/M04 A2987 RMK A01 T01551043  RH  025%=      5-min Rain = 0
KDC1 240926Z 01005KT 16/M04 A2987 RMK A01 T01561040  RH  026%=      5-min Rain = 0
KDC1 240927Z 02005KT 16/M04 A2987 RMK A01 T01551036  RH  027%=      5-min Rain = 0
KDC1 240928Z 02004KT 15/M03 A2987 RMK A01 T01531034  RH  027%=      5-min Rain = 0
KDC1 240929Z 01002KT 15/M03 A2987 RMK A01 T01511034  RH  028%=      5-min Rain = 0
KDC1 240930Z 34001KT 15/M03 A2987 RMK A01 T01501034  RH  028%=      5-min Rain = 0
KDC1 240931Z 28002KT 15/M04 A2987 RMK A01 T01491035  RH  028%=      5-min Rain = 0
KDC1 240932Z 28002KT 15/M04 A2987 RMK A01 T01461035  RH  028%=      5-min Rain = 0
KDC1 240933Z 28002KT 14/M03 A2987 RMK A01 T01441032  RH  030%=      5-min Rain = 0
KDC1 240934Z 30001KT 14/M03 A2987 RMK A01 T01431032  RH  030%=      5-min Rain = 0
KDC1 240935Z 31002KT 14/M03 A2987 RMK A01 T01431031  RH  030%=      5-min Rain = 0
KDC1 240936Z 29002KT 14/M03 A2987 RMK A01 T01441029  RH  030%=      5-min Rain = 0
KDC1 240937Z 28003KT 14/M03 A2987 RMK A01 T01441025  RH  031%=      5-min Rain = 0
KDC1 240938Z 28002KT 14/M02 A2987 RMK A01 T01421021  RH  032%=      5-min Rain = 0
KDC1 240939Z 28000KT 14/M02 A2987 RMK A01 T01411023  RH  032%=      5-min Rain = 0
KDC1 240940Z 27003KT 14/M02 A2987 RMK A01 T01421024  RH  032%=      5-min Rain = 0
KDC1 240941Z 26006KT 14/M02 A2988 RMK A01 T01431023  RH  032%=      5-min Rain = 0
KDC1 240942Z 25005KT 14/M01 A2988 RMK A01 T01421013  RH  034%=      5-min Rain = 0
KDC1 240943Z 26003KT 14/M01 A2988 RMK A01 T01411011  RH  035%=      5-min Rain = 0
KDC1 240944Z 30000KT 14/M01 A2987 RMK A01 T01401013  RH  035%=      5-min Rain = 0
KDC1 240945Z 31002KT 14/M02 A2987 RMK A01 T01401015  RH  034%=      5-min Rain = 0
KDC1 240946Z 32002KT 14/M01 A2987 RMK A01 T01401014  RH  035%=      5-min Rain = 0
KDC1 240947Z 35002KT 14/M01 A2987 RMK A01 T01391013  RH  035%=      5-min Rain = 0
KDC1 240948Z 35003KT 14/M02 A2987 RMK A01 T01391016  RH  034%=      5-min Rain = 0
KDC1 240949Z 32004KT 14/M01 A2988 RMK A01 T01391012  RH  035%=      5-min Rain = 0
KDC1 240950Z 28005KT 13/M01 A2988 RMK A01 T01341009  RH  037%=      5-min Rain = 0
KDC1 240951Z 28004KT 13/M01 A2988 RMK A01 T01291008  RH  039%=      5-min Rain = 0
KDC1 240952Z 29004KT 13/M01 A2988 RMK A01 T01281005  RH  040%=      5-min Rain = 0
KDC1 240953Z 30003KT 13/M00 A2988 RMK A01 T01281003  RH  040%=      5-min Rain = 0
KDC1 240954Z 30003KT 13/M01 A2988 RMK A01 T01301011  RH  038%=      5-min Rain = 0
KDC1 240955Z 28004KT 14/M02 A2988 RMK A01 T01351018  RH  035%=      5-min Rain = 0
KDC1 240956Z 27006KT 14/M01 A2988 RMK A01 T01391013  RH  035%=      5-min Rain = 0
KDC1 240957Z 27005KT 14/M02 A2988 RMK A01 T01401018  RH  033%=      5-min Rain = 0
KDC1 240958Z 28003KT 15/M03 A2988 RMK A01 T01451027  RH  030%=      5-min Rain = 0
KDC1 240959Z 28004KT 15/M03 A2988 RMK A01 T01501030  RH  029%=      5-min Rain = 0
KDC1 241000Z 28004KT 15/M03 A2988 RMK A01 T01541028  RH  029%=      5-min Rain = 0
KDC1 241001Z 29003KT 15/M02 A2988 RMK A01 T01541018  RH  030%=      5-min Rain = 0
KDC1 241002Z 30003KT 15/M01 A2988 RMK A01 T01521010  RH  033%=      5-min Rain = 0
KDC1 241003Z 31002KT 15/M00 A2988 RMK A01 T01471004  RH  036%=      5-min Rain = 0
KDC1 241004Z 30002KT 14/00 A2988 RMK A01 T01420000  RH  038%=      5-min Rain = 0
KDC1 241005Z 30002KT 14/M01 A2988 RMK A01 T01401006  RH  037%=      5-min Rain = 0
KDC1 241006Z 29002KT 14/M02 A2988 RMK A01 T01401017  RH  034%=      5-min Rain = 0
KDC1 241007Z 26002KT 14/M03 A2988 RMK A01 T01431030  RH  030%=      5-min Rain = 0
KDC1 241008Z 27003KT 15/M03 A2988 RMK A01 T01461034  RH  029%=      5-min Rain = 0
KDC1 241009Z 27006KT 15/M02 A2988 RMK A01 T01471015  RH  033%=      5-min Rain = 0
KDC1 241010Z 27005KT 14/M01 A2988 RMK A01 T01411008  RH  036%=      5-min Rain = 0
KDC1 241011Z 28005KT 14/00 A2988 RMK A01 T01360000  RH  039%=      5-min Rain = 0
KDC1 241012Z 27003KT 14/M01 A2988 RMK A01 T01361007  RH  037%=      5-min Rain = 0
KDC1 241013Z 26002KT 14/M02 A2988 RMK A01 T01391016  RH  034%=      5-min Rain = 0
KDC1 241014Z 27002KT 14/M02 A2988 RMK A01 T01431018  RH  033%=      5-min Rain = 0
KDC1 241015Z 29002KT 14/M02 A2988 RMK A01 T01441015  RH  033%=      5-min Rain = 0
KDC1 241016Z 31003KT 15/M00 A2988 RMK A01 T01451002  RH  037%=      5-min Rain = 0
KDC1 241017Z 29003KT 14/01 A2988 RMK A01 T01400013  RH  042%=      5-min Rain = 0
KDC1 241018Z 28005KT 13/01 A2988 RMK A01 T01340014  RH  044%=      5-min Rain = 0
KDC1 241019Z 29005KT 13/01 A2988 RMK A01 T01300014  RH  045%=      5-min Rain = 0
KDC1 241020Z 29002KT 13/02 A2988 RMK A01 T01270017  RH  047%=      5-min Rain = 0
KDC1 241021Z 30001KT 13/01 A2988 RMK A01 T01250013  RH  046%=      5-min Rain = 0
KDC1 241022Z 30003KT 13/01 A2988 RMK A01 T01250011  RH  046%=      5-min Rain = 0
KDC1 241023Z 30005KT 13/02 A2988 RMK A01 T01250015  RH  047%=      5-min Rain = 0
KDC1 241024Z 30003KT 12/02 A2988 RMK A01 T01230015  RH  048%=      5-min Rain = 0
KDC1 241025Z 30000KT 12/00 A2988 RMK A01 T01200002  RH  044%=      5-min Rain = 0
KDC1 241026Z 04000KT 12/M01 A2988 RMK A01 T01211010  RH  040%=      5-min Rain = 0
KDC1 241027Z 01002KT 12/M00 A2988 RMK A01 T01231003  RH  042%=      5-min Rain = 0
KDC1 241028Z 35004KT 12/00 A2988 RMK A01 T01240001  RH  043%=      5-min Rain = 0
KDC1 241029Z 33004KT 12/M00 A2988 RMK A01 T01241004  RH  041%=      5-min Rain = 0
KDC1 241030Z 30007KT 12/00 A2989 RMK A01 T01200002  RH  044%=      5-min Rain = 0
KDC1 241031Z 31003KT 12/00 A2989 RMK A01 T01170002  RH  045%=      5-min Rain = 0
KDC1 241032Z 35003KT 12/M00 A2988 RMK A01 T01161002  RH  044%=      5-min Rain = 0
KDC1 241033Z 34003KT 12/M01 A2988 RMK A01 T01161005  RH  043%=      5-min Rain = 0
KDC1 241034Z 01003KT 12/M01 A2988 RMK A01 T01171011  RH  041%=      5-min Rain = 0
KDC1 241035Z 01004KT 12/M02 A2988 RMK A01 T01181015  RH  040%=      5-min Rain = 0
KDC1 241036Z 33004KT 12/M02 A2988 RMK A01 T01211015  RH  039%=      5-min Rain = 0
KDC1 241037Z 30008KT 12/M02 A2989 RMK A01 T01241015  RH  038%=      5-min Rain = 0
KDC1 241038Z 32004KT 13/M02 A2988 RMK A01 T01261018  RH  037%=      5-min Rain = 0
KDC1 241039Z 34001KT 13/M02 A2988 RMK A01 T01271016  RH  037%=      5-min Rain = 0
KDC1 241040Z 32001KT 13/M02 A2988 RMK A01 T01271017  RH  037%=      5-min Rain = 0
KDC1 241041Z 33000KT 13/M02 A2988 RMK A01 T01281019  RH  036%=      5-min Rain = 0
KDC1 241042Z 25000KT 13/M02 A2988 RMK A01 T01321019  RH  035%=      5-min Rain = 0
KDC1 241043Z 25000KT 14/M03 A2989 RMK A01 T01371034  RH  030%=      5-min Rain = 0
KDC1 241044Z 29000KT 14/M03 A2989 RMK A01 T01421027  RH  031%=      5-min Rain = 0
KDC1 241045Z 31003KT 14/M03 A2989 RMK A01 T01431028  RH  030%=      5-min Rain = 0
KDC1 241046Z 34001KT 14/M03 A2989 RMK A01 T01431027  RH  031%=      5-min Rain = 0
KDC1 241047Z 36002KT 14/M03 A2989 RMK A01 T01421025  RH  031%=      5-min Rain = 0
KDC1 241048Z 02001KT 14/M02 A2989 RMK A01 T01401023  RH  032%=      5-min Rain = 0
KDC1 241049Z 01001KT 14/M02 A2989 RMK A01 T01391023  RH  033%=      5-min Rain = 0
KDC1 241050Z 32000KT 14/M02 A2989 RMK A01 T01371022  RH  033%=      5-min Rain = 0
KDC1 241051Z 09000KT 13/M02 A2989 RMK A01 T01341023  RH  034%=      5-min Rain = 0
KDC1 241052Z 10001KT 13/M03 A2989 RMK A01 T01341025  RH  033%=      5-min Rain = 0
KDC1 241053Z 11004KT 13/M02 A2989 RMK A01 T01341023  RH  033%=      5-min Rain = 0
KDC1 241054Z 10004KT 14/M02 A2989 RMK A01 T01361022  RH  034%=      5-min Rain = 0
KDC1 241055Z 10001KT 14/M02 A2989 RMK A01 T01381018  RH  034%=      5-min Rain = 0
KDC1 241056Z 26001KT 14/M02 A2989 RMK A01 T01371018  RH  034%=      5-min Rain = 0
KDC1 241057Z 28001KT 13/M02 A2989 RMK A01 T01331020  RH  035%=      5-min Rain = 0
KDC1 241058Z 29000KT 13/M02 A2989 RMK A01 T01281016  RH  037%=      5-min Rain = 0
KDC1 241059Z 07000KT 13/M02 A2989 RMK A01 T01251015  RH  038%=      5-min Rain = 0
KDC1 241100Z 08003KT 12/M02 A2989 RMK A01 T01241016  RH  038%=      5-min Rain = 0
KDC1 241101Z 09003KT 13/M02 A2989 RMK A01 T01271023  RH  035%=      5-min Rain = 0
KDC1 241102Z 09003KT 13/M02 A2989 RMK A01 T01341021  RH  034%=      5-min Rain = 0
KDC1 241103Z 08003KT 14/M02 A2989 RMK A01 T01361019  RH  034%=      5-min Rain = 0
KDC1 241104Z 05001KT 14/M02 A2989 RMK A01 T01351019  RH  034%=      5-min Rain = 0
KDC1 241105Z 21000KT 13/M02 A2989 RMK A01 T01301016  RH  037%=      5-min Rain = 0
KDC1 241106Z 21002KT 13/M02 A2989 RMK A01 T01271019  RH  036%=      5-min Rain = 0
KDC1 241107Z 24002KT 13/M02 A2989 RMK A01 T01271022  RH  035%=      5-min Rain = 0
KDC1 241108Z 25002KT 13/M03 A2989 RMK A01 T01291027  RH  034%=      5-min Rain = 0
KDC1 241109Z 33001KT 13/M03 A2989 RMK A01 T01341029  RH  032%=      5-min Rain = 0
KDC1 241110Z 33001KT 14/M02 A2989 RMK A01 T01361024  RH  033%=      5-min Rain = 0
KDC1 241111Z 27000KT 14/M03 A2989 RMK A01 T01351028  RH  032%=      5-min Rain = 0
KDC1 241112Z 26000KT 14/M03 A2989 RMK A01 T01381031  RH  031%=      5-min Rain = 0
KDC1 241113Z 19000KT 14/M03 A2989 RMK A01 T01411034  RH  030%=      5-min Rain = 0
KDC1 241114Z 29001KT 14/M03 A2989 RMK A01 T01421031  RH  030%=      5-min Rain = 0
KDC1 241115Z 30002KT 13/M01 A2989 RMK A01 T01341011  RH  037%=      5-min Rain = 0
KDC1 241116Z 30001KT 13/M01 A2989 RMK A01 T01291012  RH  038%=      5-min Rain = 0
KDC1 241117Z 06000KT 13/M01 A2989 RMK A01 T01271011  RH  039%=      5-min Rain = 0
KDC1 241118Z 01001KT 12/M01 A2989 RMK A01 T01241007  RH  040%=      5-min Rain = 0
KDC1 241119Z 30006KT 12/M01 A2989 RMK A01 T01231009  RH  040%=      5-min Rain = 0
KDC1 241120Z 29007KT 12/00 A2989 RMK A01 T01180001  RH  044%=      5-min Rain = 0
KDC1 241121Z 28002KT 11/00 A2989 RMK A01 T01110003  RH  047%=      5-min Rain = 0
KDC1 241122Z 27000KT 11/M00 A2989 RMK A01 T01091004  RH  046%=      5-min Rain = 0
KDC1 241123Z 08001KT 11/M01 A2989 RMK A01 T01111009  RH  043%=      5-min Rain = 0
KDC1 241124Z 33003KT 11/M01 A2989 RMK A01 T01141008  RH  043%=      5-min Rain = 0
KDC1 241125Z 33004KT 11/M00 A2989 RMK A01 T01131001  RH  045%=      5-min Rain = 0
KDC1 241126Z 04001KT 11/M00 A2989 RMK A01 T01101002  RH  046%=      5-min Rain = 0
KDC1 241127Z 09003KT 11/M01 A2989 RMK A01 T01101005  RH  045%=      5-min Rain = 0
KDC1 241128Z 09004KT 11/M01 A2989 RMK A01 T01121007  RH  044%=      5-min Rain = 0
KDC1 241129Z 29003G8KT 12/M01 A2989 RMK A01 T01161010  RH  042%=      5-min Rain = 0
KDC1 241130Z 28007KT 12/M01 A2989 RMK A01 T01161005  RH  043%=      5-min Rain = 0
KDC1 241131Z 29004KT 12/M02 A2989 RMK A01 T01171017  RH  039%=      5-min Rain = 0
KDC1 241132Z 15002KT 13/M02 A2989 RMK A01 T01251024  RH  035%=      5-min Rain = 0
KDC1 241133Z 11002KT 13/M03 A2989 RMK A01 T01331031  RH  032%=      5-min Rain = 0
KDC1 241134Z 02003KT 14/M03 A2989 RMK A01 T01401032  RH  030%=      5-min Rain = 0
KDC1 241135Z 05003KT 14/M02 A2989 RMK A01 T01411024  RH  032%=      5-min Rain = 0
KDC1 241136Z 09001KT 14/M04 A2989 RMK A01 T01411041  RH  028%=      5-min Rain = 0
KDC1 241137Z 34001KT 14/M04 A2989 RMK A01 T01431035  RH  029%=      5-min Rain = 0
KDC1 241138Z 32006KT 14/M02 A299 RMK A01 T01391024  RH  032%=      5-min Rain = 0
KDC1 241139Z 33005KT 13/M03 A299 RMK A01 T01331025  RH  033%=      5-min Rain = 0
KDC1 241140Z 02002KT 13/M03 A299 RMK A01 T01341033  RH  031%=      5-min Rain = 0
KDC1 241141Z 10002KT 14/M04 A299 RMK A01 T01391043  RH  028%=      5-min Rain = 0
KDC1 241142Z 11001KT 15/M04 A299 RMK A01 T01461037  RH  028%=      5-min Rain = 0
KDC1 241143Z 35000KT 15/M03 A299 RMK A01 T01471032  RH  029%=      5-min Rain = 0
KDC1 241144Z 00002KT 15/M04 A299 RMK A01 T01451036  RH  029%=      5-min Rain = 0
KDC1 241145Z 01002KT 14/M04 A299 RMK A01 T01441035  RH  029%=      5-min Rain = 0
KDC1 241146Z 02002KT 14/M04 A299 RMK A01 T01431035  RH  029%=      5-min Rain = 0
KDC1 241147Z 02002KT 14/M03 A299 RMK A01 T01421031  RH  030%=      5-min Rain = 0
KDC1 241148Z 03002KT 14/M03 A299 RMK A01 T01401025  RH  032%=      5-min Rain = 0
KDC1 241149Z 02003KT 13/M02 A299 RMK A01 T01341021  RH  034%=      5-min Rain = 0
KDC1 241150Z 01003KT 13/M02 A299 RMK A01 T01281015  RH  037%=      5-min Rain = 0
KDC1 241151Z 01003KT 12/M01 A299 RMK A01 T01231011  RH  039%=      5-min Rain = 0
KDC1 241152Z 02003KT 12/M01 A299 RMK A01 T01201011  RH  040%=      5-min Rain = 0
KDC1 241153Z 02003KT 12/M01 A299 RMK A01 T01191012  RH  040%=      5-min Rain = 0
KDC1 241154Z 01005KT 12/M01 A299 RMK A01 T01181011  RH  041%=      5-min Rain = 0
KDC1 241155Z 01004KT 12/M01 A299 RMK A01 T01181008  RH  042%=      5-min Rain = 0
KDC1 241156Z 34004KT 12/M01 A299 RMK A01 T01171008  RH  042%=      5-min Rain = 0
KDC1 241157Z 33004KT 12/M01 A299 RMK A01 T01151009  RH  042%=      5-min Rain = 0
KDC1 241158Z 34004KT 11/M01 A299 RMK A01 T01131007  RH  043%=      5-min Rain = 0
KDC1 241159Z 00005KT 11/M01 A299 RMK A01 T01101005  RH  045%=      5-min Rain = 0
KDC1 241200Z 01005KT 11/M01 A299 RMK A01 T01091010  RH  043%=      5-min Rain = 0
KDC1 241201Z 03003KT 11/M01 A299 RMK A01 T01101012  RH  043%=      5-min Rain = 0
KDC1 241202Z 35001KT 11/M01 A299 RMK A01 T01111014  RH  042%=      5-min Rain = 0
KDC1 241203Z 30004KT 12/M02 A299 RMK A01 T01151018  RH  039%=      5-min Rain = 0
KDC1 241204Z 32008KT 12/M01 A299 RMK A01 T01161009  RH  042%=      5-min Rain = 0
KDC1 241205Z 32006KT 11/M01 A299 RMK A01 T01121007  RH  044%=      5-min Rain = 0
KDC1 241206Z 35001KT 11/M01 A299 RMK A01 T01101010  RH  043%=      5-min Rain = 0
KDC1 241207Z 09002KT 11/M02 A299 RMK A01 T01111015  RH  042%=      5-min Rain = 0
KDC1 241208Z 10005KT 12/M02 A299 RMK A01 T01151016  RH  040%=      5-min Rain = 0
KDC1 241209Z 10007KT 12/M02 A299 RMK A01 T01231021  RH  037%=      5-min Rain = 0
KDC1 241210Z 10005KT 13/M03 A299 RMK A01 T01341033  RH  031%=      5-min Rain = 0
KDC1 241211Z 32006KT 14/M02 A299 RMK A01 T01391021  RH  033%=      5-min Rain = 0
KDC1 241212Z 33007KT 13/M02 A299 RMK A01 T01341017  RH  035%=      5-min Rain = 0
KDC1 241213Z 35003KT 13/M02 A299 RMK A01 T01321018  RH  035%=      5-min Rain = 0
KDC1 241214Z 36002KT 13/M02 A2991 RMK A01 T01331020  RH  035%=      5-min Rain = 0
KDC1 241215Z 01004KT 14/M02 A2991 RMK A01 T01351021  RH  034%=      5-min Rain = 0
KDC1 241216Z 03003KT 14/M02 A2991 RMK A01 T01371021  RH  033%=      5-min Rain = 0
KDC1 241217Z 04003KT 14/M02 A2991 RMK A01 T01381024  RH  032%=      5-min Rain = 0
KDC1 241218Z 06002KT 15/M03 A2991 RMK A01 T01451033  RH  029%=      5-min Rain = 0
KDC1 241219Z 04004KT 15/M03 A2991 RMK A01 T01521033  RH  028%=      5-min Rain = 0
KDC1 241220Z 01005KT 16/M03 A2991 RMK A01 T01571029  RH  028%=      5-min Rain = 0
KDC1 241221Z 36005KT 16/M03 A2991 RMK A01 T01561026  RH  029%=      5-min Rain = 0
KDC1 241222Z 01006KT 15/M03 A2991 RMK A01 T01531027  RH  029%=      5-min Rain = 0
KDC1 241223Z 01006KT 15/M03 A2991 RMK A01 T01501028  RH  029%=      5-min Rain = 0
KDC1 241224Z 03004KT 15/M03 A2991 RMK A01 T01491029  RH  029%=      5-min Rain = 0
KDC1 241225Z 02005KT 15/M03 A2991 RMK A01 T01491029  RH  029%=      5-min Rain = 0
KDC1 241226Z 01005KT 15/M03 A2991 RMK A01 T01501029  RH  029%=      5-min Rain = 0
KDC1 241227Z 00004KT 15/M03 A2991 RMK A01 T01501027  RH  030%=      5-min Rain = 0
KDC1 241228Z 34003KT 15/M03 A2991 RMK A01 T01491026  RH  030%=      5-min Rain = 0
KDC1 241229Z 31003KT 15/M02 A2991 RMK A01 T01481021  RH  031%=      5-min Rain = 0
KDC1 241230Z 31001KT 15/M02 A2991 RMK A01 T01451017  RH  033%=      5-min Rain = 0
KDC1 241231Z 08001KT 14/M02 A2991 RMK A01 T01441020  RH  032%=      5-min Rain = 0
KDC1 241232Z 07002KT 14/M03 A2991 RMK A01 T01441026  RH  031%=      5-min Rain = 0
KDC1 241233Z 07003KT 15/M02 A2991 RMK A01 T01461024  RH  031%=      5-min Rain = 0
KDC1 241234Z 07002KT 15/M02 A2991 RMK A01 T01471024  RH  031%=      5-min Rain = 0
KDC1 241235Z 26005KT 15/M02 A2992 RMK A01 T01481019  RH  032%=      5-min Rain = 0
KDC1 241236Z 27007KT 14/M01 A2992 RMK A01 T01441014  RH  034%=      5-min Rain = 0
KDC1 241237Z 25006KT 14/M03 A2992 RMK A01 T01421029  RH  031%=      5-min Rain = 0
KDC1 241238Z 18002KT 15/M03 A2991 RMK A01 T01451030  RH  030%=      5-min Rain = 0
KDC1 241239Z 17002KT 15/M02 A2991 RMK A01 T01491020  RH  031%=      5-min Rain = 0
KDC1 241240Z 14001KT 15/M02 A2991 RMK A01 T01501018  RH  031%=      5-min Rain = 0
KDC1 241241Z 15002KT 15/M01 A2991 RMK A01 T01521014  RH  032%=      5-min Rain = 0
KDC1 241242Z 13001KT 15/M01 A2991 RMK A01 T01541006  RH  033%=      5-min Rain = 0
KDC1 241243Z 09001KT 16/M00 A2991 RMK A01 T01551001  RH  035%=      5-min Rain = 0
KDC1 241244Z 33001KT 16/M02 A2991 RMK A01 T01551015  RH  031%=      5-min Rain = 0
KDC1 241245Z 31004KT 15/M02 A2991 RMK A01 T01541019  RH  030%=      5-min Rain = 0
KDC1 241246Z 30005KT 15/M01 A2991 RMK A01 T01511014  RH  032%=      5-min Rain = 0
KDC1 241247Z 29004KT 15/M01 A2991 RMK A01 T01461006  RH  035%=      5-min Rain = 0
KDC1 241248Z 28002KT 14/M00 A2991 RMK A01 T01431003  RH  037%=      5-min Rain = 0
KDC1 241249Z 29000KT 14/M01 A2991 RMK A01 T01431006  RH  036%=      5-min Rain = 0
KDC1 241250Z 00000KT 14/M01 A2991 RMK A01 T01441006  RH  036%=      5-min Rain = 0
KDC1 241251Z 13001KT 15/M01 A2991 RMK A01 T01471008  RH  035%=      5-min Rain = 0
KDC1 241252Z 10002KT 15/M01 A2992 RMK A01 T01491009  RH  034%=      5-min Rain = 0
KDC1 241253Z 07003KT 15/M01 A2992 RMK A01 T01531010  RH  033%=      5-min Rain = 0
KDC1 241254Z 07003KT 16/M01 A2992 RMK A01 T01551007  RH  033%=      5-min Rain = 0
KDC1 241255Z 08002KT 16/M01 A2992 RMK A01 T01551011  RH  032%=      5-min Rain = 0
KDC1 241256Z 34002KT 16/M01 A2992 RMK A01 T01561009  RH  032%=      5-min Rain = 0
KDC1 241257Z 32006KT 16/01 A2992 RMK A01 T01560006  RH  036%=      5-min Rain = 0
KDC1 241258Z 33005KT 15/00 A2992 RMK A01 T01510002  RH  036%=      5-min Rain = 0
KDC1 241259Z 00003KT 15/00 A2992 RMK A01 T01490001  RH  036%=      5-min Rain = 0
KDC1 241300Z 02004KT 15/M00 A2992 RMK A01 T01491003  RH  035%=      5-min Rain = 0
KDC1 241301Z 01003KT 15/M01 A2992 RMK A01 T01501010  RH  033%=      5-min Rain = 0
KDC1 241302Z 36002KT 15/M01 A2992 RMK A01 T01521011  RH  033%=      5-min Rain = 0
KDC1 241303Z 01001KT 15/M01 A2992 RMK A01 T01541010  RH  033%=      5-min Rain = 0
KDC1 241304Z 03002KT 16/M01 A2992 RMK A01 T01561010  RH  032%=      5-min Rain = 0
KDC1 241305Z 03003KT 16/M01 A2992 RMK A01 T01591011  RH  031%=      5-min Rain = 0
KDC1 241306Z 02002KT 16/M01 A2992 RMK A01 T01611014  RH  030%=      5-min Rain = 0
KDC1 241307Z 36003KT 16/M01 A2992 RMK A01 T01621011  RH  031%=      5-min Rain = 0
KDC1 241308Z 35003KT 16/M01 A2992 RMK A01 T01621008  RH  031%=      5-min Rain = 0
KDC1 241309Z 34004KT 16/M01 A2992 RMK A01 T01621008  RH  031%=      5-min Rain = 0
KDC1 241310Z 32005KT 16/M00 A2992 RMK A01 T01611004  RH  032%=      5-min Rain = 0
KDC1 241311Z 34005KT 16/M00 A2992 RMK A01 T01601004  RH  033%=      5-min Rain = 0
KDC1 241312Z 35004KT 16/M01 A2992 RMK A01 T01571008  RH  032%=      5-min Rain = 0
KDC1 241313Z 01003KT 16/M02 A2992 RMK A01 T01571015  RH  031%=      5-min Rain = 0
KDC1 241314Z 02003KT 16/M02 A2992 RMK A01 T01571015  RH  031%=      5-min Rain = 0
KDC1 241315Z 02002KT 16/M01 A2992 RMK A01 T01581012  RH  031%=      5-min Rain = 0
KDC1 241316Z 01003KT 16/M02 A2992 RMK A01 T01601016  RH  030%=      5-min Rain = 0
KDC1 241317Z 01003KT 16/M02 A2992 RMK A01 T01611019  RH  029%=      5-min Rain = 0
KDC1 241318Z 03004KT 16/M02 A2992 RMK A01 T01621020  RH  029%=      5-min Rain = 0
KDC1 241319Z 04003KT 16/M02 A2992 RMK A01 T01631022  RH  028%=      5-min Rain = 0
KDC1 241320Z 04001KT 17/M02 A2992 RMK A01 T01651020  RH  028%=      5-min Rain = 0
KDC1 241321Z 00000KT 17/M02 A2992 RMK A01 T01671020  RH  028%=      5-min Rain = 0
KDC1 241322Z 33000KT 17/M02 A2992 RMK A01 T01701020  RH  027%=      5-min Rain = 0
KDC1 241323Z 30003KT 17/M02 A2992 RMK A01 T01711019  RH  027%=      5-min Rain = 0
KDC1 241324Z 30005KT 17/M01 A2992 RMK A01 T01711009  RH  029%=      5-min Rain = 0
KDC1 241325Z 29004KT 17/01 A2992 RMK A01 T01690007  RH  033%=      5-min Rain = 0
KDC1 241326Z 30003KT 17/01 A2992 RMK A01 T01660014  RH  036%=      5-min Rain = 0
KDC1 241327Z 28003KT 17/02 A2992 RMK A01 T01660020  RH  037%=      5-min Rain = 0
KDC1 241328Z 31002KT 17/02 A2992 RMK A01 T01650023  RH  039%=      5-min Rain = 0
KDC1 241329Z 36003KT 16/02 A2992 RMK A01 T01640020  RH  038%=      5-min Rain = 0
KDC1 241330Z 00002KT 16/02 A2992 RMK A01 T01640016  RH  037%=      5-min Rain = 0
KDC1 241331Z 02001KT 17/00 A2992 RMK A01 T01670004  RH  033%=      5-min Rain = 0
KDC1 241332Z 02001KT 17/M00 A2992 RMK A01 T01701001  RH  031%=      5-min Rain = 0
KDC1 241333Z 29001KT 17/M00 A2992 RMK A01 T01731001  RH  031%=      5-min Rain = 0
KDC1 241334Z 04001KT 18/M00 A2992 RMK A01 T01751002  RH  030%=      5-min Rain = 0
KDC1 241335Z 01002KT 18/M00 A2992 RMK A01 T01771003  RH  030%=      5-min Rain = 0
KDC1 241336Z 33002KT 18/00 A2992 RMK A01 T01780000  RH  030%=      5-min Rain = 0
KDC1 241337Z 36002KT 18/M00 A2992 RMK A01 T01791002  RH  029%=      5-min Rain = 0
KDC1 241338Z 35002KT 18/M01 A2992 RMK A01 T01791006  RH  029%=      5-min Rain = 0
KDC1 241339Z 36002KT 18/M01 A2992 RMK A01 T01801007  RH  028%=      5-min Rain = 0
KDC1 241340Z 00002KT 18/M00 A2992 RMK A01 T01801003  RH  029%=      5-min Rain = 0
KDC1 241341Z 00002KT 18/00 A2992 RMK A01 T01800000  RH  030%=      5-min Rain = 0
KDC1 241342Z 02001KT 18/M00 A2992 RMK A01 T01811001  RH  029%=      5-min Rain = 0
KDC1 241343Z 02002KT 18/M01 A2992 RMK A01 T01831010  RH  027%=      5-min Rain = 0
KDC1 241344Z 03001KT 18/M01 A2992 RMK A01 T01841008  RH  027%=      5-min Rain = 0
KDC1 241345Z 03002KT 19/M01 A2992 RMK A01 T01861007  RH  027%=      5-min Rain = 0
KDC1 241346Z 04002KT 19/M01 A2992 RMK A01 T01871005  RH  027%=      5-min Rain = 0
KDC1 241347Z 03002KT 19/M00 A2992 RMK A01 T01881001  RH  028%=      5-min Rain = 0
KDC1 241348Z 02002KT 19/00 A2992 RMK A01 T018800-0  RH  028%=      5-min Rain = 0
KDC1 241349Z 01002KT 19/00 A2992 RMK A01 T01890003  RH  029%=      5-min Rain = 0
KDC1 241350Z 02002KT 19/00 A2992 RMK A01 T01890004  RH  029%=      5-min Rain = 0
KDC1 241351Z 01001KT 19/00 A2992 RMK A01 T01890003  RH  028%=      5-min Rain = 0
KDC1 241352Z 36002KT 19/00 A2992 RMK A01 T01900000  RH  028%=      5-min Rain = 0
KDC1 241353Z 35002KT 19/00 A2992 RMK A01 T01900002  RH  028%=      5-min Rain = 0
KDC1 241354Z 34004KT 19/01 A2992 RMK A01 T01900005  RH  029%=      5-min Rain = 0
KDC1 241355Z 34003KT 19/01 A2992 RMK A01 T01900007  RH  029%=      5-min Rain = 0
KDC1 241356Z 01003KT 19/01 A2992 RMK A01 T01900010  RH  030%=      5-min Rain = 0
KDC1 241357Z 03003KT 19/01 A2992 RMK A01 T01890011  RH  030%=      5-min Rain = 0
KDC1 241358Z 02004KT 19/M00 A2992 RMK A01 T01891001  RH  028%=      5-min Rain = 0
KDC1 241359Z 03004KT 19/00 A2992 RMK A01 T019100-0  RH  028%=      5-min Rain = 0
KDC1 241400Z 02004KT 19/M00 A2992 RMK A01 T01921001  RH  027%=      5-min Rain = 0
KDC1 241401Z 02004KT 19/01 A2992 RMK A01 T01920006  RH  029%=      5-min Rain = 0
KDC1 241402Z 02004KT 19/01 A2992 RMK A01 T01920006  RH  029%=      5-min Rain = 0
KDC1 241403Z 03004KT 19/00 A2992 RMK A01 T01920002  RH  028%=      5-min Rain = 0
KDC1 241404Z 03004KT 19/00 A2992 RMK A01 T01930001  RH  027%=      5-min Rain = 0
KDC1 241405Z 03004KT 20/01 A2993 RMK A01 T01950008  RH  028%=      5-min Rain = 0
KDC1 241406Z 03003KT 20/01 A2993 RMK A01 T01960011  RH  029%=      5-min Rain = 0
KDC1 241407Z 01002KT 20/02 A2993 RMK A01 T01970016  RH  030%=      5-min Rain = 0
KDC1 241408Z 01003KT 20/01 A2993 RMK A01 T01990014  RH  029%=      5-min Rain = 0
KDC1 241409Z 00004KT 20/02 A2993 RMK A01 T02010015  RH  029%=      5-min Rain = 0
KDC1 241410Z 36002KT 20/02 A2993 RMK A01 T02020021  RH  030%=      5-min Rain = 0
KDC1 241411Z 01002KT 20/03 A2993 RMK A01 T02030031  RH  032%=      5-min Rain = 0
KDC1 241412Z 01003KT 21/02 A2993 RMK A01 T02050023  RH  030%=      5-min Rain = 0
KDC1 241413Z 02003KT 21/01 A2993 RMK A01 T02050013  RH  028%=      5-min Rain = 0
KDC1 241414Z 03002KT 21/02 A2993 RMK A01 T02060017  RH  028%=      5-min Rain = 0
KDC1 241415Z 03003KT 21/02 A2993 RMK A01 T02070017  RH  028%=      5-min Rain = 0
KDC1 241416Z 03003KT 21/02 A2993 RMK A01 T02080017  RH  028%=      5-min Rain = 0
KDC1 241417Z 03002KT 21/01 A2993 RMK A01 T02100012  RH  027%=      5-min Rain = 0
KDC1 241418Z 03002KT 21/02 A2993 RMK A01 T02110015  RH  027%=      5-min Rain = 0
KDC1 241419Z 03002KT 21/02 A2993 RMK A01 T02120017  RH  027%=      5-min Rain = 0
KDC1 241420Z 04002KT 22/01 A2993 RMK A01 T02150013  RH  026%=      5-min Rain = 0
KDC1 241421Z 04001KT 22/01 A2993 RMK A01 T02170011  RH  026%=      5-min Rain = 0
KDC1 241422Z 04002KT 22/01 A2993 RMK A01 T02180011  RH  025%=      5-min Rain = 0
KDC1 241423Z 04001KT 22/01 A2993 RMK A01 T02190011  RH  025%=      5-min Rain = 0
KDC1 241424Z 02001KT 22/01 A2993 RMK A01 T02210010  RH  025%=      5-min Rain = 0
KDC1 241425Z 03002KT 22/01 A2994 RMK A01 T02230007  RH  024%=      5-min Rain = 0
KDC1 241426Z 06002KT 22/01 A2994 RMK A01 T02240006  RH  024%=      5-min Rain = 0
KDC1 241427Z 06001KT 23/M01 A2994 RMK A01 T02271007  RH  021%=      5-min Rain = 0
KDC1 241428Z 07001KT 23/M01 A2994 RMK A01 T02291012  RH  020%=      5-min Rain = 0
KDC1 241429Z 08002KT 23/M01 A2994 RMK A01 T02321012  RH  020%=      5-min Rain = 0
KDC1 241430Z 10002KT 23/M01 A2993 RMK A01 T02331014  RH  019%=      5-min Rain = 0
KDC1 241431Z 10002KT 24/M01 A2993 RMK A01 T02351014  RH  019%=      5-min Rain = 0
KDC1 241432Z 14001KT 24/M00 A2993 RMK A01 T02361001  RH  021%=      5-min Rain = 0
KDC1 241433Z 15002KT 24/01 A2993 RMK A01 T02360007  RH  022%=      5-min Rain = 0
KDC1 241434Z 17002KT 24/02 A2993 RMK A01 T02350019  RH  024%=      5-min Rain = 0
KDC1 241435Z 18002KT 23/03 A2993 RMK A01 T02340030  RH  026%=      5-min Rain = 0
KDC1 241436Z 18002KT 23/03 A2993 RMK A01 T02340026  RH  026%=      5-min Rain = 0
KDC1 241437Z 17001KT 23/02 A2993 RMK A01 T02340020  RH  025%=      5-min Rain = 0
KDC1 241438Z 18000KT 23/01 A2993 RMK A01 T02340013  RH  023%=      5-min Rain = 0
KDC1 241439Z 16001KT 24/01 A2993 RMK A01 T02350007  RH  022%=      5-min Rain = 0
KDC1 241440Z 15001KT 24/00 A2993 RMK A01 T02360002  RH  021%=      5-min Rain = 0
KDC1 241441Z 14001KT 24/M00 A2993 RMK A01 T02361002  RH  021%=      5-min Rain = 0
KDC1 241442Z 14001KT 24/M00 A2993 RMK A01 T02371001  RH  021%=      5-min Rain = 0
KDC1 241443Z 16001KT 24/M01 A2993 RMK A01 T02371008  RH  020%=      5-min Rain = 0
KDC1 241444Z 11001KT 24/M01 A2993 RMK A01 T02371005  RH  020%=      5-min Rain = 0
KDC1 241445Z 09001KT 24/M01 A2993 RMK A01 T02401014  RH  019%=      5-min Rain = 0
KDC1 241446Z 07000KT 24/M02 A2993 RMK A01 T02411024  RH  017%=      5-min Rain = 0
KDC1 241447Z 10001KT 24/M02 A2993 RMK A01 T02431024  RH  017%=      5-min Rain = 0
KDC1 241448Z 02000KT 25/M02 A2993 RMK A01 T02451021  RH  017%=      5-min Rain = 0
KDC1 241449Z 36000KT 25/M02 A2993 RMK A01 T02471022  RH  017%=      5-min Rain = 0
KDC1 241450Z 00000KT 25/M02 A2993 RMK A01 T02471023  RH  017%=      5-min Rain = 0
KDC1 241451Z 06001KT 25/M02 A2993 RMK A01 T02491021  RH  017%=      5-min Rain = 0
KDC1 241452Z 06001KT 25/M02 A2993 RMK A01 T02511023  RH  016%=      5-min Rain = 0
KDC1 241453Z 08000KT 25/M02 A2993 RMK A01 T02511023  RH  016%=      5-min Rain = 0
KDC1 241454Z 14001KT 25/M02 A2993 RMK A01 T02511022  RH  016%=      5-min Rain = 0
KDC1 241455Z 15001KT 25/M01 A2993 RMK A01 T02521010  RH  018%=      5-min Rain = 0
KDC1 241456Z 15001KT 25/M00 A2993 RMK A01 T02541001  RH  019%=      5-min Rain = 0
KDC1 241457Z 15001KT 25/00 A2993 RMK A01 T02540004  RH  019%=      5-min Rain = 0
KDC1 241458Z 14002KT 26/01 A2993 RMK A01 T02550010  RH  020%=      5-min Rain = 0
KDC1 241459Z 14001KT 26/00 A2993 RMK A01 T02550001  RH  019%=      5-min Rain = 0
KDC1 241500Z 12001KT 26/M01 A2993 RMK A01 T02551005  RH  018%=      5-min Rain = 0
KDC1 241501Z 07002KT 26/M02 A2993 RMK A01 T02551015  RH  017%=      5-min Rain = 0
KDC1 241502Z 03002KT 25/M02 A2993 RMK A01 T02541020  RH  016%=      5-min Rain = 0
KDC1 241503Z 02002KT 25/M02 A2993 RMK A01 T02531020  RH  016%=      5-min Rain = 0
KDC1 241504Z 06001KT 25/M02 A2993 RMK A01 T02511022  RH  016%=      5-min Rain = 0
KDC1 241505Z 08002KT 25/M02 A2993 RMK A01 T02501020  RH  017%=      5-min Rain = 0
KDC1 241506Z 09001KT 25/M02 A2993 RMK A01 T02501021  RH  016%=      5-min Rain = 0
KDC1 241507Z 12002KT 25/M02 A2993 RMK A01 T02521018  RH  017%=      5-min Rain = 0
KDC1 241508Z 12003KT 25/M01 A2993 RMK A01 T02531014  RH  017%=      5-min Rain = 0
KDC1 241509Z 12003KT 25/01 A2993 RMK A01 T02530014  RH  021%=      5-min Rain = 0
KDC1 241510Z 12003KT 25/02 A2993 RMK A01 T02540023  RH  022%=      5-min Rain = 0
KDC1 241511Z 12003KT 25/02 A2993 RMK A01 T02530019  RH  022%=      5-min Rain = 0
KDC1 241512Z 11002KT 25/01 A2993 RMK A01 T02510006  RH  020%=      5-min Rain = 0
KDC1 241513Z 11003KT 25/M00 A2993 RMK A01 T02501001  RH  019%=      5-min Rain = 0
KDC1 241514Z 10003KT 25/01 A2993 RMK A01 T02490006  RH  020%=      5-min Rain = 0
KDC1 241515Z 11002KT 25/00 A2993 RMK A01 T02490003  RH  020%=      5-min Rain = 0
KDC1 241516Z 12002KT 25/01 A2993 RMK A01 T02500013  RH  021%=      5-min Rain = 0
KDC1 241517Z 13002KT 25/02 A2993 RMK A01 T02500016  RH  022%=      5-min Rain = 0
KDC1 241518Z 12003KT 25/02 A2993 RMK A01 T02500018  RH  022%=      5-min Rain = 0
KDC1 241519Z 11003KT 25/01 A2993 RMK A01 T02500011  RH  021%=      5-min Rain = 0
KDC1 241520Z 11003KT 25/02 A2993 RMK A01 T02520015  RH  021%=      5-min Rain = 0
KDC1 241521Z 12003KT 25/01 A2993 RMK A01 T02520009  RH  020%=      5-min Rain = 0
KDC1 241522Z 12003KT 25/01 A2993 RMK A01 T02520008  RH  020%=      5-min Rain = 0
KDC1 241523Z 12003KT 25/02 A2993 RMK A01 T02520016  RH  021%=      5-min Rain = 0
KDC1 241524Z 12003KT 25/01 A2993 RMK A01 T02520012  RH  021%=      5-min Rain = 0
KDC1 241525Z 07003KT 25/M00 A2993 RMK A01 T02521001  RH  019%=      5-min Rain = 0
KDC1 241526Z 06003KT 25/M00 A2993 RMK A01 T02531004  RH  018%=      5-min Rain = 0
KDC1 241527Z 06004KT 25/M01 A2993 RMK A01 T02541009  RH  018%=      5-min Rain = 0
KDC1 241528Z 06004KT 25/M01 A2993 RMK A01 T02531012  RH  017%=      5-min Rain = 0
KDC1 241529Z 06002KT 26/M01 A2993 RMK A01 T02551005  RH  018%=      5-min Rain = 0
KDC1 241530Z 05003KT 26/M00 A2993 RMK A01 T02561004  RH  018%=      5-min Rain = 0
KDC1 241531Z 05002KT 26/M01 A2993 RMK A01 T02571008  RH  017%=      5-min Rain = 0
KDC1 241532Z 08002KT 26/M01 A2993 RMK A01 T02571009  RH  017%=      5-min Rain = 0
KDC1 241533Z 07003KT 26/M01 A2993 RMK A01 T02591012  RH  017%=      5-min Rain = 0
KDC1 241534Z 10002KT 26/M01 A2993 RMK A01 T02591009  RH  017%=      5-min Rain = 0
KDC1 241535Z 11003KT 26/M01 A2993 RMK A01 T02601008  RH  017%=      5-min Rain = 0
KDC1 241536Z 11002KT 26/M01 A2993 RMK A01 T02591009  RH  017%=      5-min Rain = 0
KDC1 241537Z 12003KT 26/M01 A2993 RMK A01 T02591006  RH  018%=      5-min Rain = 0
KDC1 241538Z 13003KT 26/M01 A2993 RMK A01 T02601007  RH  017%=      5-min Rain = 0
KDC1 241539Z 13003KT 26/M01 A2993 RMK A01 T02591012  RH  017%=      5-min Rain = 0
KDC1 241540Z 13002KT 26/M01 A2993 RMK A01 T02591010  RH  017%=      5-min Rain = 0
KDC1 241541Z 14002KT 26/M01 A2993 RMK A01 T02601014  RH  017%=      5-min Rain = 0
KDC1 241542Z 14002KT 26/M01 A2993 RMK A01 T02601011  RH  017%=      5-min Rain = 0
KDC1 241543Z 13003KT 26/M00 A2993 RMK A01 T02621004  RH  017%=      5-min Rain = 0
KDC1 241544Z 14003KT 26/M01 A2993 RMK A01 T02631010  RH  017%=      5-min Rain = 0
KDC1 241545Z 14002KT 27/M01 A2993 RMK A01 T02651005  RH  017%=      5-min Rain = 0
KDC1 241546Z 15003KT 27/M00 A2993 RMK A01 T02671003  RH  017%=      5-min Rain = 0
KDC1 241547Z 14003KT 27/00 A2992 RMK A01 T02670001  RH  018%=      5-min Rain = 0
KDC1 241548Z 12003KT 27/M00 A2992 RMK A01 T02661001  RH  017%=      5-min Rain = 0
KDC1 241549Z 13003KT 27/00 A2992 RMK A01 T02650003  RH  018%=      5-min Rain = 0
KDC1 241550Z 13002KT 27/01 A2992 RMK A01 T02660007  RH  018%=      5-min Rain = 0
KDC1 241551Z 13002KT 27/01 A2992 RMK A01 T02660006  RH  018%=      5-min Rain = 0
KDC1 241552Z 15003KT 27/00 A2992 RMK A01 T02670004  RH  018%=      5-min Rain = 0
KDC1 241553Z 17002KT 27/M01 A2992 RMK A01 T02681012  RH  016%=      5-min Rain = 0
KDC1 241554Z 17002KT 27/M02 A2992 RMK A01 T02681017  RH  015%=      5-min Rain = 0
KDC1 241555Z 17001KT 27/M02 A2992 RMK A01 T02681015  RH  016%=      5-min Rain = 0
KDC1 241556Z 13002KT 27/M01 A2992 RMK A01 T02681013  RH  016%=      5-min Rain = 0
KDC1 241557Z 16001KT 27/M01 A2992 RMK A01 T02681012  RH  016%=      5-min Rain = 0
KDC1 241558Z 15002KT 27/M01 A2992 RMK A01 T02681012  RH  016%=      5-min Rain = 0
KDC1 241559Z 13002KT 27/M01 A2992 RMK A01 T02691008  RH  016%=      5-min Rain = 0
KDC1 241600Z 13002KT 27/M01 A2992 RMK A01 T02691006  RH  017%=      5-min Rain = 0
KDC1 241601Z 15002KT 27/M01 A2992 RMK A01 T02701008  RH  016%=      5-min Rain = 0
KDC1 241602Z 16001KT 27/M01 A2992 RMK A01 T02701012  RH  016%=      5-min Rain = 0
KDC1 241603Z 19001KT 27/M01 A2992 RMK A01 T02711010  RH  016%=      5-min Rain = 0
KDC1 241604Z 20002KT 27/M01 A2991 RMK A01 T02711008  RH  016%=      5-min Rain = 0
KDC1 241605Z 22001KT 27/M01 A2991 RMK A01 T02701009  RH  016%=      5-min Rain = 0
KDC1 241606Z 18001KT 27/M01 A2991 RMK A01 T02701010  RH  016%=      5-min Rain = 0
KDC1 241607Z 18001KT 27/M01 A2991 RMK A01 T02691009  RH  016%=      5-min Rain = 0
KDC1 241608Z 15001KT 27/M00 A2991 RMK A01 T02721004  RH  016%=      5-min Rain = 0
KDC1 241609Z 11001KT 27/M00 A2991 RMK A01 T02741004  RH  016%=      5-min Rain = 0
KDC1 241610Z 17000KT 28/M00 A2991 RMK A01 T02761001  RH  016%=      5-min Rain = 0
KDC1 241611Z 08001KT 28/M00 A2991 RMK A01 T02761003  RH  016%=      5-min Rain = 0
KDC1 241612Z 14002KT 28/00 A2991 RMK A01 T027600-0  RH  017%=      5-min Rain = 0
KDC1 241613Z 13002KT 28/00 A2991 RMK A01 T02760002  RH  017%=      5-min Rain = 0
KDC1 241614Z 03004KT 28/M01 A2991 RMK A01 T02751008  RH  016%=      5-min Rain = 0
KDC1 241615Z 02003KT 27/M01 A2991 RMK A01 T02731013  RH  015%=      5-min Rain = 0
KDC1 241616Z 02002KT 27/M02 A2991 RMK A01 T02721015  RH  015%=      5-min Rain = 0
KDC1 241617Z 00002KT 27/M02 A2991 RMK A01 T02721016  RH  015%=      5-min Rain = 0
KDC1 241618Z 34002KT 27/M02 A2991 RMK A01 T02721016  RH  015%=      5-min Rain = 0
KDC1 241619Z 02001KT 27/M02 A2991 RMK A01 T02721015  RH  015%=      5-min Rain = 0
KDC1 241620Z 02000KT 27/M02 A2991 RMK A01 T02731015  RH  015%=      5-min Rain = 0
KDC1 241621Z 07001KT 28/M02 A2991 RMK A01 T02751015  RH  015%=      5-min Rain = 0
KDC1 241622Z 10001KT 28/M02 A2991 RMK A01 T02771016  RH  015%=      5-min Rain = 0
KDC1 241623Z 00001KT 28/M01 A2991 RMK A01 T02801013  RH  015%=      5-min Rain = 0
KDC1 241624Z 31000KT 28/M01 A2991 RMK A01 T02831012  RH  015%=      5-min Rain = 0
KDC1 241625Z 29003KT 29/M01 A2991 RMK A01 T02851014  RH  014%=      5-min Rain = 0
KDC1 241626Z 30003KT 29/M02 A2991 RMK A01 T02861019  RH  014%=      5-min Rain = 0
KDC1 241627Z 30002KT 28/M02 A2991 RMK A01 T02841021  RH  014%=      5-min Rain = 0
KDC1 241628Z 32002KT 28/M02 A2991 RMK A01 T02821020  RH  014%=      5-min Rain = 0
KDC1 241629Z 29002KT 28/M02 A2991 RMK A01 T02821019  RH  014%=      5-min Rain = 0
KDC1 241630Z 28002KT 28/M02 A2991 RMK A01 T02801018  RH  014%=      5-min Rain = 0
KDC1 241631Z 28002KT 28/M02 A2991 RMK A01 T02791017  RH  014%=      5-min Rain = 0
KDC1 241632Z 26003KT 28/M02 A2991 RMK A01 T02781017  RH  014%=      5-min Rain = 0
KDC1 241633Z 24001KT 28/M02 A2991 RMK A01 T02781018  RH  014%=      5-min Rain = 0
KDC1 241634Z 24001KT 28/M02 A2991 RMK A01 T02791015  RH  015%=      5-min Rain = 0
KDC1 241635Z 24002KT 28/M01 A2991 RMK A01 T02821013  RH  015%=      5-min Rain = 0
KDC1 241636Z 25002KT 28/M02 A2991 RMK A01 T02831015  RH  014%=      5-min Rain = 0
KDC1 241637Z 24002KT 28/M02 A2991 RMK A01 T02841016  RH  014%=      5-min Rain = 0
KDC1 241638Z 27001KT 28/M02 A2991 RMK A01 T02821017  RH  014%=      5-min Rain = 0
KDC1 241639Z 01000KT 28/M02 A2991 RMK A01 T02801016  RH  014%=      5-min Rain = 0
KDC1 241640Z 28002KT 28/M02 A2991 RMK A01 T02801015  RH  014%=      5-min Rain = 0
KDC1 241641Z 27002KT 28/M01 A2991 RMK A01 T02821013  RH  015%=      5-min Rain = 0
KDC1 241642Z 32002KT 28/M01 A2991 RMK A01 T02821014  RH  014%=      5-min Rain = 0
KDC1 241643Z 33002KT 28/M01 A2991 RMK A01 T02811012  RH  015%=      5-min Rain = 0
KDC1 241644Z 22000KT 28/M01 A2991 RMK A01 T02821010  RH  015%=      5-min Rain = 0
KDC1 241645Z 16001KT 29/M01 A2991 RMK A01 T02851009  RH  015%=      5-min Rain = 0
KDC1 241646Z 15003KT 29/M01 A299 RMK A01 T02871011  RH  014%=      5-min Rain = 0
KDC1 241647Z 14002KT 29/M01 A299 RMK A01 T02871013  RH  014%=      5-min Rain = 0
KDC1 241648Z 19003KT 29/M01 A299 RMK A01 T02871010  RH  014%=      5-min Rain = 0
KDC1 241649Z 20003KT 29/M01 A299 RMK A01 T02861007  RH  015%=      5-min Rain = 0
KDC1 241650Z 21002KT 29/M00 A299 RMK A01 T02881004  RH  015%=      5-min Rain = 0
KDC1 241651Z 24003KT 29/M01 A299 RMK A01 T02911010  RH  014%=      5-min Rain = 0
KDC1 241652Z 21003KT 29/M00 A299 RMK A01 T02921001  RH  015%=      5-min Rain = 0
KDC1 241653Z 24001KT 29/M01 A299 RMK A01 T02901008  RH  014%=      5-min Rain = 0
KDC1 241654Z 32000KT 29/M01 A299 RMK A01 T02901013  RH  014%=      5-min Rain = 0
KDC1 241655Z 01000KT 29/M02 A299 RMK A01 T02921018  RH  013%=      5-min Rain = 0
KDC1 241656Z 32000KT 30/M02 A299 RMK A01 T02961017  RH  013%=      5-min Rain = 0
KDC1 241657Z 18002KT 30/M02 A299 RMK A01 T02981019  RH  013%=      5-min Rain = 0
KDC1 241658Z 20001KT 30/M02 A299 RMK A01 T02981015  RH  013%=      5-min Rain = 0
KDC1 241659Z 23001KT 30/M01 A299 RMK A01 T02991011  RH  013%=      5-min Rain = 0
KDC1 241700Z 23002KT 30/M02 A299 RMK A01 T02991019  RH  013%=      5-min Rain = 0
KDC1 241701Z 23001KT 30/M02 A299 RMK A01 T02991015  RH  013%=      5-min Rain = 0
KDC1 241702Z 13001KT 30/M01 A299 RMK A01 T03011014  RH  013%=      5-min Rain = 0
KDC1 241703Z 13002KT 30/M01 A299 RMK A01 T03021010  RH  013%=      5-min Rain = 0
KDC1 241704Z 13002KT 30/M01 A299 RMK A01 T03031011  RH  013%=      5-min Rain = 0
KDC1 241705Z 12002KT 30/M01 A299 RMK A01 T03021014  RH  013%=      5-min Rain = 0
KDC1 241706Z 15002KT 30/M01 A299 RMK A01 T02991010  RH  013%=      5-min Rain = 0
KDC1 241707Z 16002KT 30/M00 A299 RMK A01 T02991003  RH  014%=      5-min Rain = 0
KDC1 241708Z 13002KT 30/M01 A299 RMK A01 T03001006  RH  014%=      5-min Rain = 0
KDC1 241709Z 15001KT 30/M01 A299 RMK A01 T03011008  RH  014%=      5-min Rain = 0
KDC1 241710Z 22003KT 30/M01 A299 RMK A01 T03011011  RH  013%=      5-min Rain = 0
KDC1 241711Z 20002KT 30/M01 A299 RMK A01 T02991009  RH  014%=      5-min Rain = 0
KDC1 241712Z 17001KT 30/M01 A299 RMK A01 T02981008  RH  014%=      5-min Rain = 0
KDC1 241713Z 22004KT 30/M00 A299 RMK A01 T02991004  RH  014%=      5-min Rain = 0
KDC1 241714Z 20003KT 30/M02 A299 RMK A01 T02971018  RH  013%=      5-min Rain = 0
KDC1 241715Z 17001KT 29/M02 A299 RMK A01 T02941018  RH  013%=      5-min Rain = 0
KDC1 241716Z 12000KT 29/M02 A299 RMK A01 T02941015  RH  013%=      5-min Rain = 0
KDC1 241717Z 20000KT 30/M02 A299 RMK A01 T02961017  RH  013%=      5-min Rain = 0
KDC1 241718Z 25002KT 30/M01 A299 RMK A01 T02981014  RH  013%=      5-min Rain = 0
KDC1 241719Z 23003KT 30/M02 A299 RMK A01 T03001016  RH  013%=      5-min Rain = 0
KDC1 241720Z 22002KT 30/M02 A299 RMK A01 T03001015  RH  013%=      5-min Rain = 0
KDC1 241721Z 25002KT 30/M02 A299 RMK A01 T03001017  RH  013%=      5-min Rain = 0
KDC1 241722Z 33002KT 30/M02 A2989 RMK A01 T02981018  RH  013%=      5-min Rain = 0
KDC1 241723Z 17002KT 30/M02 A299 RMK A01 T02971015  RH  013%=      5-min Rain = 0
KDC1 241724Z 18003KT 30/M01 A299 RMK A01 T02971008  RH  014%=      5-min Rain = 0
KDC1 241725Z 20004KT 30/M00 A299 RMK A01 T02971002  RH  015%=      5-min Rain = 0
KDC1 241726Z 18004KT 30/00 A299 RMK A01 T02970004  RH  015%=      5-min Rain = 0
KDC1 241727Z 20004KT 30/01 A299 RMK A01 T02970005  RH  015%=      5-min Rain = 0
KDC1 241728Z 25006KT 30/02 A299 RMK A01 T02970021  RH  017%=      5-min Rain = 0
KDC1 241729Z 24008KT 30/03 A299 RMK A01 T02980027  RH  018%=      5-min Rain = 0
KDC1 241730Z 24008KT 30/01 A299 RMK A01 T02980014  RH  016%=      5-min Rain = 0
KDC1 241731Z 24008KT 30/01 A2989 RMK A01 T02970012  RH  016%=      5-min Rain = 0
KDC1 241732Z 24006KT 30/05 A299 RMK A01 T02960046  RH  021%=      5-min Rain = 0
KDC1 241733Z 24005KT 30/03 A299 RMK A01 T02960030  RH  018%=      5-min Rain = 0
KDC1 241734Z 25005KT 30/01 A299 RMK A01 T02990010  RH  016%=      5-min Rain = 0
KDC1 241735Z 24005KT 30/01 A299 RMK A01 T02990007  RH  015%=      5-min Rain = 0
KDC1 241736Z 29005KT 30/01 A2989 RMK A01 T02980006  RH  015%=      5-min Rain = 0
KDC1 241737Z 28006KT 30/M01 A2989 RMK A01 T02991011  RH  013%=      5-min Rain = 0
KDC1 241738Z 26007G12KT 30/M00 A2989 RMK A01 T03021004  RH  014%=      5-min Rain = 0
KDC1 241739Z 22004KT 30/01 A2989 RMK A01 T03030006  RH  015%=      5-min Rain = 0
KDC1 241740Z 22007KT 30/01 A2989 RMK A01 T03010010  RH  015%=      5-min Rain = 0
KDC1 241741Z 24006G11KT 30/02 A2989 RMK A01 T03000023  RH  017%=      5-min Rain = 0
KDC1 241742Z 26007KT 30/M01 A2989 RMK A01 T03001009  RH  014%=      5-min Rain = 0
KDC1 241743Z 25005KT 30/M02 A2989 RMK A01 T02971018  RH  013%=      5-min Rain = 0
KDC1 241744Z 23004KT 30/M02 A2989 RMK A01 T02971016  RH  013%=      5-min Rain = 0
KDC1 241745Z 18003KT 30/M01 A2989 RMK A01 T02991014  RH  013%=      5-min Rain = 0
KDC1 241746Z 24003KT 30/M02 A2989 RMK A01 T02991015  RH  013%=      5-min Rain = 0
KDC1 241747Z 25004KT 30/M01 A2989 RMK A01 T03011014  RH  013%=      5-min Rain = 0
KDC1 241748Z 25005KT 30/M01 A2989 RMK A01 T03021007  RH  014%=      5-min Rain = 0
KDC1 241749Z 30008KT 30/00 A2989 RMK A01 T030100-0  RH  014%=      5-min Rain = 0
KDC1 241750Z 30010KT 30/M01 A2989 RMK A01 T03041008  RH  013%=      5-min Rain = 0
KDC1 241751Z 28007G12KT 31/M01 A2989 RMK A01 T03051012  RH  013%=      5-min Rain = 0
KDC1 241752Z 27005KT 30/M02 A2989 RMK A01 T03031019  RH  012%=      5-min Rain = 0
KDC1 241753Z 29004KT 30/M02 A2989 RMK A01 T03001016  RH  013%=      5-min Rain = 0
KDC1 241754Z 29007KT 30/00 A2989 RMK A01 T03010000  RH  014%=      5-min Rain = 0
KDC1 241755Z 28009KT 30/M01 A2989 RMK A01 T03021007  RH  014%=      5-min Rain = 0
KDC1 241756Z 27009KT 30/M02 A2989 RMK A01 T03031015  RH  013%=      5-min Rain = 0
KDC1 241757Z 27006KT 30/M02 A2989 RMK A01 T03021017  RH  013%=      5-min Rain = 0
KDC1 241758Z 28006KT 30/M01 A2989 RMK A01 T03031010  RH  013%=      5-min Rain = 0
KDC1 241759Z 24010G16KT 31/M01 A2989 RMK A01 T03061008  RH  013%=      5-min Rain = 0
KDC1 241800Z 24011KT 31/M00 A2989 RMK A01 T03061001  RH  014%=      5-min Rain = 0
KDC1 241801Z 25009KT 31/M01 A2989 RMK A01 T03051006  RH  013%=      5-min Rain = 0
KDC1 241802Z 25008KT 30/M01 A2989 RMK A01 T03041007  RH  013%=      5-min Rain = 0
KDC1 241803Z 25007KT 30/M00 A2989 RMK A01 T03031002  RH  014%=      5-min Rain = 0
KDC1 241804Z 25009KT 30/01 A2989 RMK A01 T03040007  RH  015%=      5-min Rain = 0
KDC1 241805Z 24010G16KT 30/01 A2989 RMK A01 T03040010  RH  015%=      5-min Rain = 0
KDC1 241806Z 26011KT 30/02 A2989 RMK A01 T03040019  RH  016%=      5-min Rain = 0
KDC1 241807Z 26009KT 31/M02 A2989 RMK A01 T03051015  RH  013%=      5-min Rain = 0
KDC1 241808Z 25008KT 30/M00 A2989 RMK A01 T03031004  RH  014%=      5-min Rain = 0
KDC1 241809Z 26008KT 30/M01 A2989 RMK A01 T03011010  RH  013%=      5-min Rain = 0
KDC1 241810Z 27007KT 30/M03 A2989 RMK A01 T03011026  RH  012%=      5-min Rain = 0
KDC1 241811Z 26004KT 30/M03 A2989 RMK A01 T02991026  RH  012%=      5-min Rain = 0
KDC1 241812Z 26006KT 30/M02 A2989 RMK A01 T03001020  RH  012%=      5-min Rain = 0
KDC1 241813Z 27009KT 30/M01 A2989 RMK A01 T03031013  RH  013%=      5-min Rain = 0
KDC1 241814Z 30008KT 30/M01 A2989 RMK A01 T03031012  RH  013%=      5-min Rain = 0
KDC1 241815Z 27011KT 30/M01 A2989 RMK A01 T03041006  RH  013%=      5-min Rain = 0
KDC1 241816Z 28008KT 31/M01 A2989 RMK A01 T03051013  RH  013%=      5-min Rain = 0
KDC1 241817Z 28007G12KT 31/M00 A2988 RMK A01 T03061004  RH  013%=      5-min Rain = 0
KDC1 241818Z 28012KT 31/M00 A2988 RMK A01 T03111001  RH  013%=      5-min Rain = 0
KDC1 241819Z 28010KT 31/M02 A2988 RMK A01 T03111018  RH  012%=      5-min Rain = 0
KDC1 241820Z 28010KT 31/M02 A2988 RMK A01 T03081020  RH  012%=      5-min Rain = 0
KDC1 241821Z 27008KT 31/M03 A2988 RMK A01 T03051025  RH  012%=      5-min Rain = 0
KDC1 241822Z 29008KT 30/M02 A2988 RMK A01 T03041018  RH  012%=      5-min Rain = 0
KDC1 241823Z 27008KT 31/M01 A2988 RMK A01 T03061012  RH  013%=      5-min Rain = 0
KDC1 241824Z 25005KT 31/M01 A2988 RMK A01 T03051009  RH  013%=      5-min Rain = 0
KDC1 241825Z 24004KT 31/00 A2988 RMK A01 T03060003  RH  014%=      5-min Rain = 0
KDC1 241826Z 23004KT 31/01 A2988 RMK A01 T03090009  RH  015%=      5-min Rain = 0
KDC1 241827Z 26009KT 31/01 A2988 RMK A01 T03120006  RH  014%=      5-min Rain = 0
KDC1 241828Z 26012KT 31/M01 A2988 RMK A01 T03091014  RH  012%=      5-min Rain = 0
KDC1 241829Z 26011G16KT 31/M02 A2988 RMK A01 T03071022  RH  012%=      5-min Rain = 0
KDC1 241830Z 26009KT 30/M03 A2988 RMK A01 T03041028  RH  011%=      5-min Rain = 0
KDC1 241831Z 26011G16KT 30/M01 A2988 RMK A01 T03041013  RH  013%=      5-min Rain = 0
KDC1 241832Z 24011KT 31/M00 A2988 RMK A01 T03071002  RH  014%=      5-min Rain = 0
KDC1 241833Z 24008KT 30/M02 A2988 RMK A01 T03041023  RH  012%=      5-min Rain = 0
KDC1 241834Z 24006KT 30/M02 A2988 RMK A01 T03031015  RH  013%=      5-min Rain = 0
KDC1 241835Z 23006KT 30/M01 A2988 RMK A01 T03031006  RH  014%=      5-min Rain = 0
KDC1 241836Z 25009G15KT 30/M02 A2988 RMK A01 T03031020  RH  012%=      5-min Rain = 0
KDC1 241837Z 23006KT 30/01 A2988 RMK A01 T03020007  RH  015%=      5-min Rain = 0
KDC1 241838Z 23003G8KT 30/01 A2988 RMK A01 T03040007  RH  015%=      5-min Rain = 0
KDC1 241839Z 24006KT 31/01 A2988 RMK A01 T03090007  RH  014%=      5-min Rain = 0
KDC1 241840Z 24006KT 31/03 A2988 RMK A01 T03090025  RH  016%=      5-min Rain = 0
KDC1 241841Z 23005KT 31/04 A2988 RMK A01 T03070039  RH  018%=      5-min Rain = 0
KDC1 241842Z 24007KT 31/04 A2988 RMK A01 T03070040  RH  018%=      5-min Rain = 0
KDC1 241843Z 24006KT 31/01 A2988 RMK A01 T03080007  RH  015%=      5-min Rain = 0
KDC1 241844Z 22005KT 31/M01 A2988 RMK A01 T03091014  RH  012%=      5-min Rain = 0
KDC1 241845Z 25005KT 31/M01 A2988 RMK A01 T03091011  RH  013%=      5-min Rain = 0
KDC1 241846Z 25005KT 31/M02 A2988 RMK A01 T03101024  RH  011%=      5-min Rain = 0
KDC1 241847Z 27004KT 31/M04 A2988 RMK A01 T03101041  RH  010%=      5-min Rain = 0
KDC1 241848Z 30001KT 31/M05 A2987 RMK A01 T03091045  RH  010%=      5-min Rain = 0
KDC1 241849Z 21004KT 31/M04 A2987 RMK A01 T03071043  RH  010%=      5-min Rain = 0
KDC1 241850Z 21005KT 31/M03 A2987 RMK A01 T03071026  RH  012%=      5-min Rain = 0
KDC1 241851Z 21003KT 31/M03 A2987 RMK A01 T03081030  RH  011%=      5-min Rain = 0
KDC1 241852Z 14002KT 31/M04 A2987 RMK A01 T03081041  RH  010%=      5-min Rain = 0
KDC1 241853Z 20003KT 31/M03 A2987 RMK A01 T03081033  RH  011%=      5-min Rain = 0
KDC1 241854Z 21002KT 31/M04 A2987 RMK A01 T03081037  RH  010%=      5-min Rain = 0
KDC1 241855Z 23004KT 31/M04 A2987 RMK A01 T03071035  RH  011%=      5-min Rain = 0
KDC1 241856Z 25006KT 31/M03 A2987 RMK A01 T03071027  RH  011%=      5-min Rain = 0
KDC1 241857Z 27008KT 31/M01 A2987 RMK A01 T03091011  RH  013%=      5-min Rain = 0
KDC1 241858Z 26007KT 31/00 A2987 RMK A01 T03120000  RH  013%=      5-min Rain = 0
KDC1 241859Z 27007KT 31/00 A2987 RMK A01 T031200-0  RH  013%=      5-min Rain = 0
KDC1 241900Z 29011KT 31/M02 A2987 RMK A01 T03121019  RH  012%=      5-min Rain = 0
KDC1 241901Z 30009KT 31/M04 A2987 RMK A01 T03111035  RH  010%=      5-min Rain = 0
KDC1 241902Z 33002KT 31/M04 A2987 RMK A01 T03071039  RH  010%=      5-min Rain = 0
KDC1 241903Z 28008KT 31/M03 A2987 RMK A01 T03051034  RH  011%=      5-min Rain = 0
KDC1 241904Z 27011KT 31/M02 A2987 RMK A01 T03061022  RH  012%=      5-min Rain = 0
KDC1 241905Z 29010KT 31/M02 A2987 RMK A01 T03071023  RH  012%=      5-min Rain = 0
KDC1 241906Z 30008KT 31/M03 A2987 RMK A01 T03071031  RH  011%=      5-min Rain = 0
KDC1 241907Z 27008KT 31/M03 A2987 RMK A01 T03061031  RH  011%=      5-min Rain = 0
KDC1 241908Z 27008KT 31/M03 A2987 RMK A01 T03051031  RH  011%=      5-min Rain = 0
KDC1 241909Z 26008KT 31/M03 A2987 RMK A01 T03061034  RH  011%=      5-min Rain = 0
KDC1 241910Z 19006KT 31/M03 A2986 RMK A01 T03061028  RH  011%=      5-min Rain = 0
KDC1 241911Z 30007KT 31/M02 A2986 RMK A01 T03071024  RH  012%=      5-min Rain = 0
KDC1 241912Z 30007KT 31/M03 A2987 RMK A01 T03081030  RH  011%=      5-min Rain = 0
KDC1 241913Z 28007KT 31/M03 A2987 RMK A01 T03071029  RH  011%=      5-min Rain = 0
KDC1 241914Z 27011KT 31/M02 A2986 RMK A01 T03061018  RH  012%=      5-min Rain = 0
KDC1 241915Z 28014KT 31/M01 A2986 RMK A01 T03121013  RH  012%=      5-min Rain = 0
KDC1 241916Z 26011KT 32/M02 A2986 RMK A01 T03151017  RH  012%=      5-min Rain = 0
KDC1 241917Z 26014KT 32/M02 A2986 RMK A01 T03151019  RH  012%=      5-min Rain = 0
KDC1 241918Z 25011KT 31/M03 A2986 RMK A01 T03101031  RH  011%=      5-min Rain = 0
KDC1 241919Z 23008KT 31/M03 A2986 RMK A01 T03081031  RH  011%=      5-min Rain = 0
KDC1 241920Z 24005KT 31/M03 A2986 RMK A01 T03071033  RH  011%=      5-min Rain = 0
KDC1 241921Z 27003G9KT 31/M04 A2986 RMK A01 T03071035  RH  011%=      5-min Rain = 0
KDC1 241922Z 29009KT 31/M03 A2986 RMK A01 T03081027  RH  011%=      5-min Rain = 0
KDC1 241923Z 30007KT 31/M02 A2986 RMK A01 T03121024  RH  011%=      5-min Rain = 0
KDC1 241924Z 29008KT 31/M02 A2986 RMK A01 T03121016  RH  012%=      5-min Rain = 0
KDC1 241925Z 30008KT 32/M01 A2986 RMK A01 T03151012  RH  012%=      5-min Rain = 0
KDC1 241926Z 31007KT 32/M02 A2986 RMK A01 T03171020  RH  011%=      5-min Rain = 0
KDC1 241927Z 29008KT 31/M03 A2986 RMK A01 T03131026  RH  011%=      5-min Rain = 0
KDC1 241928Z 29008KT 31/M03 A2986 RMK A01 T03101025  RH  011%=      5-min Rain = 0
KDC1 241929Z 29007KT 31/M03 A2986 RMK A01 T03081029  RH  011%=      5-min Rain = 0
KDC1 241930Z 28011KT 31/M02 A2986 RMK A01 T03071019  RH  012%=      5-min Rain = 0
KDC1 241931Z 28011KT 31/M02 A2986 RMK A01 T03101020  RH  012%=      5-min Rain = 0
KDC1 241932Z 29011KT 31/M02 A2985 RMK A01 T03111017  RH  012%=      5-min Rain = 0
KDC1 241933Z 29011G16KT 31/M01 A2985 RMK A01 T03121008  RH  013%=      5-min Rain = 0
KDC1 241934Z 30012KT 31/M02 A2985 RMK A01 T03141015  RH  012%=      5-min Rain = 0
KDC1 241935Z 27013KT 31/M02 A2985 RMK A01 T03121018  RH  012%=      5-min Rain = 0
KDC1 241936Z 25008KT 31/00 A2985 RMK A01 T03130003  RH  014%=      5-min Rain = 0
KDC1 241937Z 27009KT 31/M00 A2985 RMK A01 T03141004  RH  013%=      5-min Rain = 0
KDC1 241938Z 27007KT 32/M01 A2985 RMK A01 T03171008  RH  012%=      5-min Rain = 0
KDC1 241939Z 28010KT 32/M01 A2985 RMK A01 T03211010  RH  012%=      5-min Rain = 0
KDC1 241940Z 27013KT 32/M01 A2985 RMK A01 T03201014  RH  012%=      5-min Rain = 0
KDC1 241941Z 28011KT 32/M01 A2985 RMK A01 T03161010  RH  012%=      5-min Rain = 0
KDC1 241942Z 28015KT 32/M01 A2985 RMK A01 T03171007  RH  012%=      5-min Rain = 0
KDC1 241943Z 28012KT 32/M02 A2985 RMK A01 T03161016  RH  012%=      5-min Rain = 0
KDC1 241944Z 26009KT 31/M02 A2985 RMK A01 T03131021  RH  011%=      5-min Rain = 0
KDC1 241945Z 28013KT 31/M02 A2985 RMK A01 T03141015  RH  012%=      5-min Rain = 0
KDC1 241946Z 28013KT 32/00 A2985 RMK A01 T03180000  RH  013%=      5-min Rain = 0
KDC1 241947Z 29014KT 32/M01 A2985 RMK A01 T03151013  RH  012%=      5-min Rain = 0
KDC1 241948Z 29013KT 31/00 A2984 RMK A01 T03130002  RH  014%=      5-min Rain = 0
KDC1 241949Z 28014KT 31/00 A2984 RMK A01 T03140003  RH  014%=      5-min Rain = 0
KDC1 241950Z 25009KT 31/M00 A2984 RMK A01 T03141004  RH  013%=      5-min Rain = 0
KDC1 241951Z 27012G18KT 32/01 A2984 RMK A01 T03180010  RH  014%=      5-min Rain = 0
KDC1 241952Z 28014KT 32/01 A2984 RMK A01 T03210010  RH  014%=      5-min Rain = 0
KDC1 241953Z 28017KT 32/01 A2984 RMK A01 T03230009  RH  013%=      5-min Rain = 0
KDC1 241954Z 28015KT 32/01 A2984 RMK A01 T03200013  RH  014%=      5-min Rain = 0
KDC1 241955Z 29018G23KT 32/01 A2984 RMK A01 T03190012  RH  014%=      5-min Rain = 0
KDC1 241956Z 28019KT 32/01 A2984 RMK A01 T03180006  RH  014%=      5-min Rain = 0
KDC1 241957Z 28019KT 32/00 A2984 RMK A01 T03160003  RH  013%=      5-min Rain = 0
KDC1 241958Z 27015KT 32/M01 A2984 RMK A01 T03161008  RH  012%=      5-min Rain = 0
KDC1 241959Z 27011KT 32/M01 A2984 RMK A01 T03161013  RH  012%=      5-min Rain = 0
KDC1 242000Z 29014KT 32/M00 A2984 RMK A01 T03181001  RH  013%=      5-min Rain = 0
KDC1 242001Z 29013KT 32/M01 A2984 RMK A01 T03151012  RH  012%=      5-min Rain = 0
KDC1 242002Z 30014KT 31/M01 A2984 RMK A01 T03111007  RH  013%=      5-min Rain = 0
KDC1 242003Z 30011KT 31/M02 A2984 RMK A01 T03111018  RH  012%=      5-min Rain = 0
KDC1 242004Z 29010KT 31/M02 A2984 RMK A01 T03121020  RH  012%=      5-min Rain = 0
KDC1 242005Z 29009KT 31/M02 A2984 RMK A01 T03121017  RH  012%=      5-min Rain = 0
KDC1 242006Z 32006KT 31/M02 A2984 RMK A01 T03091021  RH  012%=      5-min Rain = 0
KDC1 242007Z 31006KT 31/M02 A2984 RMK A01 T03061021  RH  012%=      5-min Rain = 0
KDC1 242008Z 28012KT 31/M02 A2984 RMK A01 T03061018  RH  012%=      5-min Rain = 0
KDC1 242009Z 27012KT 31/M01 A2984 RMK A01 T03101010  RH  013%=      5-min Rain = 0
KDC1 242010Z 26013KT 32/M01 A2984 RMK A01 T03191012  RH  012%=      5-min Rain = 0
KDC1 242011Z 26011KT 32/M01 A2984 RMK A01 T03191012  RH  012%=      5-min Rain = 0
KDC1 242012Z 28009KT 32/M02 A2984 RMK A01 T03151024  RH  011%=      5-min Rain = 0
KDC1 242013Z 27009KT 31/M02 A2984 RMK A01 T03141022  RH  011%=      5-min Rain = 0
KDC1 242014Z 28011G17KT 31/M02 A2984 RMK A01 T03131023  RH  011%=      5-min Rain = 0
KDC1 242015Z 27015KT 31/M01 A2984 RMK A01 T03121009  RH  013%=      5-min Rain = 0
KDC1 242016Z 28013KT 32/M02 A2984 RMK A01 T03151016  RH  012%=      5-min Rain = 0
KDC1 242017Z 28013KT 31/M02 A2984 RMK A01 T03141018  RH  012%=      5-min Rain = 0
KDC1 242018Z 27010KT 31/M02 A2984 RMK A01 T03111020  RH  012%=      5-min Rain = 0
KDC1 242019Z 29010KT 31/M02 A2984 RMK A01 T03101019  RH  012%=      5-min Rain = 0
KDC1 242020Z 30009KT 31/M02 A2983 RMK A01 T03111017  RH  012%=      5-min Rain = 0
KDC1 242021Z 28009KT 31/M02 A2983 RMK A01 T03091021  RH  012%=      5-min Rain = 0
KDC1 242022Z 30008G13KT 31/M02 A2983 RMK A01 T03081019  RH  012%=      5-min Rain = 0
KDC1 242023Z 27005KT 31/M02 A2983 RMK A01 T03121024  RH  011%=      5-min Rain = 0
KDC1 242024Z 26007KT 31/M01 A2983 RMK A01 T03111013  RH  012%=      5-min Rain = 0
KDC1 242025Z 27011KT 31/M01 A2983 RMK A01 T03141007  RH  013%=      5-min Rain = 0
KDC1 242026Z 27011KT 32/M01 A2983 RMK A01 T03171011  RH  012%=      5-min Rain = 0
KDC1 242027Z 26009KT 31/M01 A2983 RMK A01 T03141008  RH  013%=      5-min Rain = 0
KDC1 242028Z 25011KT 31/01 A2983 RMK A01 T03140013  RH  015%=      5-min Rain = 0
KDC1 242029Z 24009KT 31/M00 A2983 RMK A01 T03131003  RH  013%=      5-min Rain = 0
KDC1 242030Z 26011KT 31/00 A2983 RMK A01 T03110003  RH  014%=      5-min Rain = 0
KDC1 242031Z 27014KT 31/M02 A2983 RMK A01 T03141015  RH  012%=      5-min Rain = 0
KDC1 242032Z 26010KT 32/M03 A2983 RMK A01 T03191027  RH  011%=      5-min Rain = 0
KDC1 242033Z 25006KT 32/M03 A2983 RMK A01 T03201025  RH  011%=      5-min Rain = 0
KDC1 242034Z 25010G18KT 32/M01 A2983 RMK A01 T03221011  RH  012%=      5-min Rain = 0
KDC1 242035Z 25014G19KT 32/00 A2983 RMK A01 T03190001  RH  013%=      5-min Rain = 0
KDC1 242036Z 24013G18KT 31/02 A2983 RMK A01 T03130018  RH  015%=      5-min Rain = 0
KDC1 242037Z 24012G17KT 31/00 A2983 RMK A01 T03100004  RH  014%=      5-min Rain = 0
KDC1 242038Z 23011KT 31/01 A2983 RMK A01 T03090008  RH  015%=      5-min Rain = 0
KDC1 242039Z 23008G14KT 31/01 A2983 RMK A01 T03070009  RH  015%=      5-min Rain = 0
KDC1 242040Z 24010KT 31/01 A2983 RMK A01 T03090005  RH  014%=      5-min Rain = 0
KDC1 242041Z 24008KT 31/01 A2983 RMK A01 T03100008  RH  014%=      5-min Rain = 0
KDC1 242042Z 24008KT 31/01 A2983 RMK A01 T03110006  RH  014%=      5-min Rain = 0
KDC1 242043Z 22006KT 31/M01 A2983 RMK A01 T03121014  RH  012%=      5-min Rain = 0
KDC1 242044Z 22009KT 31/M02 A2983 RMK A01 T03121019  RH  012%=      5-min Rain = 0
KDC1 242045Z 24007KT 31/M01 A2982 RMK A01 T03101014  RH  012%=      5-min Rain = 0
KDC1 242046Z 24008KT 31/01 A2982 RMK A01 T03110008  RH  014%=      5-min Rain = 0
KDC1 242047Z 23010KT 31/01 A2982 RMK A01 T03130011  RH  014%=      5-min Rain = 0
KDC1 242048Z 24010KT 31/00 A2982 RMK A01 T03120001  RH  014%=      5-min Rain = 0
KDC1 242049Z 24011KT 31/00 A2982 RMK A01 T03100003  RH  014%=      5-min Rain = 0
KDC1 242050Z 22008G13KT 31/M00 A2982 RMK A01 T03091002  RH  013%=      5-min Rain = 0
KDC1 242051Z 22006KT 31/M00 A2982 RMK A01 T03091001  RH  014%=      5-min Rain = 0
KDC1 242052Z 22004KT 31/M01 A2982 RMK A01 T03101010  RH  013%=      5-min Rain = 0
KDC1 242053Z 24008KT 31/M01 A2982 RMK A01 T03121012  RH  012%=      5-min Rain = 0
KDC1 242054Z 25007KT 31/M01 A2982 RMK A01 T03131011  RH  012%=      5-min Rain = 0
KDC1 242055Z 25007KT 31/M01 A2982 RMK A01 T03131009  RH  012%=      5-min Rain = 0
KDC1 242056Z 28016KT 31/M00 A2982 RMK A01 T03121003  RH  013%=      5-min Rain = 0
KDC1 242057Z 28017KT 31/M02 A2982 RMK A01 T03141020  RH  011%=      5-min Rain = 0
KDC1 242058Z 28015KT 32/M02 A2982 RMK A01 T03151021  RH  011%=      5-min Rain = 0
KDC1 242059Z 27012G19KT 32/M02 A2982 RMK A01 T03151022  RH  011%=      5-min Rain = 0
KDC1 242100Z 27013KT 31/M02 A2982 RMK A01 T03141023  RH  011%=      5-min Rain = 0
KDC1 242101Z 27009KT 31/M03 A2982 RMK A01 T03121029  RH  011%=      5-min Rain = 0
KDC1 242102Z 27011KT 31/M03 A2982 RMK A01 T03121030  RH  011%=      5-min Rain = 0
KDC1 242103Z 25008KT 31/M02 A2982 RMK A01 T03121024  RH  011%=      5-min Rain = 0
KDC1 242104Z 28008KT 31/M03 A2982 RMK A01 T03131025  RH  011%=      5-min Rain = 0
KDC1 242105Z 26012KT 32/M01 A2982 RMK A01 T03151014  RH  012%=      5-min Rain = 0
KDC1 242106Z 27007KT 32/M02 A2982 RMK A01 T03161021  RH  011%=      5-min Rain = 0
KDC1 242107Z 24007KT 31/M02 A2982 RMK A01 T03141019  RH  012%=      5-min Rain = 0
KDC1 242108Z 24005KT 31/M02 A2982 RMK A01 T03131022  RH  011%=      5-min Rain = 0
KDC1 242109Z 25008KT 31/M02 A2982 RMK A01 T03131016  RH  012%=      5-min Rain = 0
KDC1 242110Z 26011KT 31/M02 A2982 RMK A01 T03141019  RH  012%=      5-min Rain = 0
KDC1 242111Z 27011KT 31/M01 A2981 RMK A01 T03131014  RH  012%=      5-min Rain = 0
KDC1 242112Z 30010KT 31/M01 A2981 RMK A01 T03121011  RH  012%=      5-min Rain = 0
KDC1 242113Z 28012KT 31/M01 A2981 RMK A01 T03131006  RH  013%=      5-min Rain = 0
KDC1 242114Z 25010KT 31/02 A2981 RMK A01 T03130016  RH  015%=      5-min Rain = 0
KDC1 242115Z 25008KT 31/01 A2981 RMK A01 T03120006  RH  014%=      5-min Rain = 0
KDC1 242116Z 25008KT 31/01 A2981 RMK A01 T03120005  RH  014%=      5-min Rain = 0
KDC1 242117Z 25009KT 31/02 A2981 RMK A01 T03140019  RH  015%=      5-min Rain = 0
KDC1 242118Z 26008KT 31/M00 A2981 RMK A01 T03131002  RH  013%=      5-min Rain = 0
KDC1 242119Z 28010KT 31/M01 A2981 RMK A01 T03131006  RH  013%=      5-min Rain = 0
KDC1 242120Z 28011KT 31/M00 A2981 RMK A01 T03131001  RH  013%=      5-min Rain = 0
KDC1 242121Z 29010KT 31/00 A2981 RMK A01 T031300-0  RH  013%=      5-min Rain = 0
KDC1 242122Z 26013G18KT 32/01 A2981 RMK A01 T03170005  RH  014%=      5-min Rain = 0
KDC1 242123Z 25015KT 32/00 A2981 RMK A01 T03180001  RH  013%=      5-min Rain = 0
KDC1 242124Z 23010KT 31/M00 A2981 RMK A01 T03131002  RH  013%=      5-min Rain = 0
KDC1 242125Z 24012G17KT 31/01 A2981 RMK A01 T03100005  RH  014%=      5-min Rain = 0
KDC1 242126Z 24008KT 31/00 A2981 RMK A01 T03080001  RH  014%=      5-min Rain = 0
KDC1 242127Z 23005G10KT 31/00 A2981 RMK A01 T03080003  RH  014%=      5-min Rain = 0
KDC1 242128Z 25010KT 31/00 A2981 RMK A01 T03130000  RH  013%=      5-min Rain = 0
KDC1 242129Z 24010G15KT 31/00 A2981 RMK A01 T03140000  RH  013%=      5-min Rain = 0
KDC1 242130Z 24011G17KT 31/00 A2981 RMK A01 T03130001  RH  013%=      5-min Rain = 0
KDC1 242131Z 26011G16KT 31/01 A2981 RMK A01 T03120014  RH  015%=      5-min Rain = 0
KDC1 242132Z 26012KT 32/00 A2981 RMK A01 T03150002  RH  013%=      5-min Rain = 0
KDC1 242133Z 26016G22KT 32/00 A2981 RMK A01 T031900-0  RH  013%=      5-min Rain = 0
KDC1 242134Z 26018KT 32/00 A2981 RMK A01 T031800-0  RH  013%=      5-min Rain = 0
KDC1 242135Z 27015KT 32/M00 A2981 RMK A01 T03161003  RH  013%=      5-min Rain = 0
KDC1 242136Z 26015G21KT 32/00 A2981 RMK A01 T03220002  RH  013%=      5-min Rain = 0
KDC1 242137Z 26014KT 32/M01 A2981 RMK A01 T03211005  RH  012%=      5-min Rain = 0
KDC1 242138Z 26012KT 32/00 A2981 RMK A01 T03180003  RH  013%=      5-min Rain = 0
KDC1 242139Z 25010KT 32/01 A2981 RMK A01 T03150010  RH  014%=      5-min Rain = 0
KDC1 242140Z 26010KT 31/01 A2981 RMK A01 T03140010  RH  014%=      5-min Rain = 0
KDC1 242141Z 25008KT 31/02 A2981 RMK A01 T03140015  RH  015%=      5-min Rain = 0
KDC1 242142Z 27008KT 31/M00 A298 RMK A01 T03131003  RH  013%=      5-min Rain = 0
KDC1 242143Z 25006KT 31/M01 A298 RMK A01 T03121009  RH  013%=      5-min Rain = 0
KDC1 242144Z 27006KT 31/M01 A298 RMK A01 T03121009  RH  013%=      5-min Rain = 0
KDC1 242145Z 27011G16KT 31/M01 A298 RMK A01 T03131007  RH  013%=      5-min Rain = 0
KDC1 242146Z 27014KT 31/M01 A298 RMK A01 T03131008  RH  013%=      5-min Rain = 0
KDC1 242147Z 27014KT 31/M02 A298 RMK A01 T03141017  RH  012%=      5-min Rain = 0
KDC1 242148Z 26013KT 31/M02 A298 RMK A01 T03131021  RH  011%=      5-min Rain = 0
KDC1 242149Z 27008KT 31/M02 A298 RMK A01 T03121023  RH  011%=      5-min Rain = 0
KDC1 242150Z 27011KT 31/M02 A298 RMK A01 T03111015  RH  012%=      5-min Rain = 0
KDC1 242151Z 26014G20KT 31/00 A298 RMK A01 T03140001  RH  013%=      5-min Rain = 0
KDC1 242152Z 26018KT 32/M00 A298 RMK A01 T03151001  RH  013%=      5-min Rain = 0
KDC1 242153Z 26015KT 31/M01 A298 RMK A01 T03141012  RH  012%=      5-min Rain = 0
KDC1 242154Z 25012KT 31/M01 A298 RMK A01 T03121009  RH  013%=      5-min Rain = 0
KDC1 242155Z 25010KT 31/M00 A298 RMK A01 T03101004  RH  013%=      5-min Rain = 0
KDC1 242156Z 24006KT 31/02 A298 RMK A01 T03080015  RH  015%=      5-min Rain = 0
KDC1 242157Z 24010G15KT 31/00 A2979 RMK A01 T03090001  RH  014%=      5-min Rain = 0
KDC1 242158Z 25015KT 31/M02 A2979 RMK A01 T03101015  RH  012%=      5-min Rain = 0
KDC1 242159Z 24012G17KT 31/00 A2979 RMK A01 T03100001  RH  014%=      5-min Rain = 0
KDC1 242200Z 24011KT 31/00 A2979 RMK A01 T03090002  RH  014%=      5-min Rain = 0
KDC1 242201Z 25013G19KT 31/00 A2979 RMK A01 T03070001  RH  014%=      5-min Rain = 0
KDC1 242202Z 25016KT 31/M00 A2979 RMK A01 T03071002  RH  014%=      5-min Rain = 0
KDC1 242203Z 25014KT 31/M01 A2979 RMK A01 T03061006  RH  013%=      5-min Rain = 0
KDC1 242204Z 24014G19KT 31/M01 A2979 RMK A01 T03051005  RH  014%=      5-min Rain = 0
KDC1 242205Z 25012KT 31/M00 A2979 RMK A01 T03051002  RH  014%=      5-min Rain = 0
KDC1 242206Z 23012KT 31/00 A2979 RMK A01 T03050002  RH  014%=      5-min Rain = 0
KDC1 242207Z 23009KT 31/M00 A2979 RMK A01 T03061003  RH  014%=      5-min Rain = 0
KDC1 242208Z 24010KT 31/M00 A2979 RMK A01 T03061001  RH  014%=      5-min Rain = 0
KDC1 242209Z 23007G12KT 31/M00 A2979 RMK A01 T03081001  RH  014%=      5-min Rain = 0
KDC1 242210Z 24010KT 31/M00 A2979 RMK A01 T03091001  RH  014%=      5-min Rain = 0
KDC1 242211Z 24009KT 31/M00 A2979 RMK A01 T03091001  RH  014%=      5-min Rain = 0
KDC1 242212Z 23007KT 31/01 A2979 RMK A01 T03090011  RH  015%=      5-min Rain = 0
KDC1 242213Z 23008KT 31/01 A2979 RMK A01 T03090006  RH  014%=      5-min Rain = 0
KDC1 242214Z 22008KT 31/M01 A2979 RMK A01 T03091006  RH  013%=      5-min Rain = 0
KDC1 242215Z 23009KT 31/M01 A2979 RMK A01 T03091013  RH  012%=      5-min Rain = 0
KDC1 242216Z 23007KT 31/M01 A2979 RMK A01 T03101005  RH  013%=      5-min Rain = 0
KDC1 242217Z 23004KT 31/01 A2979 RMK A01 T03110014  RH  015%=      5-min Rain = 0
KDC1 242218Z 23006KT 31/01 A2979 RMK A01 T03110014  RH  015%=      5-min Rain = 0
KDC1 242219Z 23006G11KT 31/02 A2979 RMK A01 T03110022  RH  016%=      5-min Rain = 0
KDC1 242220Z 23006KT 31/03 A2979 RMK A01 T03120028  RH  016%=      5-min Rain = 0
KDC1 242221Z 24010G15KT 31/03 A2978 RMK A01 T03130026  RH  016%=      5-min Rain = 0
KDC1 242222Z 24014KT 31/02 A2978 RMK A01 T03100018  RH  015%=      5-min Rain = 0
KDC1 242223Z 26016KT 31/00 A2978 RMK A01 T03080004  RH  014%=      5-min Rain = 0
KDC1 242224Z 26012KT 31/M02 A2978 RMK A01 T03101020  RH  012%=      5-min Rain = 0
KDC1 242225Z 27012KT 31/M02 A2978 RMK A01 T03131018  RH  012%=      5-min Rain = 0
KDC1 242226Z 27016KT 32/M01 A2978 RMK A01 T03151012  RH  012%=      5-min Rain = 0
KDC1 242227Z 27016KT 32/M01 A2978 RMK A01 T03151014  RH  012%=      5-min Rain = 0
KDC1 242228Z 26014KT 31/M02 A2978 RMK A01 T03121017  RH  012%=      5-min Rain = 0
KDC1 242229Z 27011KT 31/M02 A2978 RMK A01 T03121016  RH  012%=      5-min Rain = 0
KDC1 242230Z 29011KT 31/00 A2978 RMK A01 T03120004  RH  014%=      5-min Rain = 0
KDC1 242231Z 29013KT 31/00 A2978 RMK A01 T03130004  RH  014%=      5-min Rain = 0
KDC1 242232Z 28013KT 31/01 A2978 RMK A01 T03130006  RH  014%=      5-min Rain = 0
KDC1 242233Z 27014KT 31/00 A2978 RMK A01 T03110002  RH  014%=      5-min Rain = 0
KDC1 242234Z 28014KT 31/M01 A2978 RMK A01 T03111006  RH  013%=      5-min Rain = 0
KDC1 242235Z 27013KT 31/M01 A2978 RMK A01 T03131013  RH  012%=      5-min Rain = 0
KDC1 242236Z 28011KT 31/M01 A2978 RMK A01 T03131012  RH  012%=      5-min Rain = 0
KDC1 242237Z 27011KT 31/M01 A2978 RMK A01 T03131006  RH  013%=      5-min Rain = 0
KDC1 242238Z 25009KT 31/M01 A2978 RMK A01 T03131007  RH  013%=      5-min Rain = 0
KDC1 242239Z 26009KT 31/M00 A2978 RMK A01 T03141003  RH  013%=      5-min Rain = 0
KDC1 242240Z 26014KT 32/01 A2978 RMK A01 T03150012  RH  014%=      5-min Rain = 0
KDC1 242241Z 25014KT 32/M00 A2978 RMK A01 T03151004  RH  013%=      5-min Rain = 0
KDC1 242242Z 25013G18KT 31/M00 A2978 RMK A01 T03111004  RH  013%=      5-min Rain = 0
KDC1 242243Z 24013KT 31/00 A2978 RMK A01 T03100004  RH  014%=      5-min Rain = 0
KDC1 242244Z 24013KT 31/00 A2978 RMK A01 T03090001  RH  014%=      5-min Rain = 0
KDC1 242245Z 25010G15KT 31/M01 A2978 RMK A01 T03071012  RH  013%=      5-min Rain = 0
KDC1 242246Z 26011KT 31/01 A2978 RMK A01 T03070009  RH  015%=      5-min Rain = 0
KDC1 242247Z 26013KT 31/M01 A2978 RMK A01 T03081014  RH  012%=      5-min Rain = 0
KDC1 242248Z 27015KT 31/M02 A2978 RMK A01 T03091023  RH  012%=      5-min Rain = 0
KDC1 242249Z 28015KT 31/M02 A2978 RMK A01 T03121019  RH  012%=      5-min Rain = 0
KDC1 242250Z 27013KT 31/M02 A2978 RMK A01 T03131024  RH  011%=      5-min Rain = 0
KDC1 242251Z 27011KT 31/M03 A2978 RMK A01 T03111028  RH  011%=      5-min Rain = 0
KDC1 242252Z 26012KT 31/M03 A2978 RMK A01 T03111025  RH  011%=      5-min Rain = 0
KDC1 242253Z 24007KT 31/M03 A2978 RMK A01 T03111028  RH  011%=      5-min Rain = 0
KDC1 242254Z 25009KT 31/M02 A2978 RMK A01 T03101016  RH  012%=      5-min Rain = 0
KDC1 242255Z 25010KT 31/M01 A2978 RMK A01 T03091009  RH  013%=      5-min Rain = 0
KDC1 242256Z 28008KT 31/M00 A2978 RMK A01 T03111004  RH  013%=      5-min Rain = 0
KDC1 242257Z 28009KT 31/01 A2977 RMK A01 T03120013  RH  015%=      5-min Rain = 0
KDC1 242258Z 27013G18KT 31/01 A2977 RMK A01 T03130008  RH  014%=      5-min Rain = 0
KDC1 242259Z 26009KT 31/M00 A2977 RMK A01 T03141001  RH  013%=      5-min Rain = 0
KDC1 242300Z 27012KT 32/00 A2977 RMK A01 T03160004  RH  014%=      5-min Rain = 0
KDC1 242301Z 26012KT 32/00 A2977 RMK A01 T03150001  RH  013%=      5-min Rain = 0
KDC1 242302Z 25012KT 31/M01 A2977 RMK A01 T03141005  RH  013%=      5-min Rain = 0
KDC1 242303Z 24008KT 31/M00 A2977 RMK A01 T03111002  RH  013%=      5-min Rain = 0
KDC1 242304Z 25008KT 31/01 A2977 RMK A01 T03090007  RH  014%=      5-min Rain = 0
KDC1 242305Z 25008KT 31/M00 A2977 RMK A01 T03081002  RH  014%=      5-min Rain = 0
KDC1 242306Z 25007KT 31/01 A2977 RMK A01 T03070006  RH  015%=      5-min Rain = 0
KDC1 242307Z 29011G16KT 31/01 A2977 RMK A01 T03070008  RH  015%=      5-min Rain = 0
KDC1 242308Z 28011KT 31/01 A2977 RMK A01 T03070005  RH  014%=      5-min Rain = 0
KDC1 242309Z 26013KT 31/00 A2977 RMK A01 T03080004  RH  014%=      5-min Rain = 0
KDC1 242310Z 27014KT 31/00 A2977 RMK A01 T03110001  RH  014%=      5-min Rain = 0
KDC1 242311Z 26014KT 31/01 A2977 RMK A01 T03140005  RH  014%=      5-min Rain = 0
KDC1 242312Z 27016KT 32/M00 A2977 RMK A01 T03151003  RH  013%=      5-min Rain = 0
KDC1 242313Z 26015G23KT 32/M00 A2977 RMK A01 T03151001  RH  013%=      5-min Rain = 0
KDC1 242314Z 27018KT 32/M01 A2977 RMK A01 T03151007  RH  013%=      5-min Rain = 0
KDC1 242315Z 27017KT 32/M01 A2977 RMK A01 T03151010  RH  012%=      5-min Rain = 0
KDC1 242316Z 27013KT 31/M01 A2977 RMK A01 T03131009  RH  013%=      5-min Rain = 0
KDC1 242317Z 27015KT 31/M01 A2977 RMK A01 T03131007  RH  013%=      5-min Rain = 0
KDC1 242318Z 27012KT 31/M01 A2977 RMK A01 T03121008  RH  013%=      5-min Rain = 0
KDC1 242319Z 27010KT 31/M01 A2977 RMK A01 T03111005  RH  013%=      5-min Rain = 0
KDC1 242320Z 28008KT 31/M01 A2977 RMK A01 T03101012  RH  012%=      5-min Rain = 0
KDC1 242321Z 26011KT 31/M01 A2977 RMK A01 T03091011  RH  013%=      5-min Rain = 0
KDC1 242322Z 27010KT 31/M01 A2977 RMK A01 T03101011  RH  013%=      5-min Rain = 0
KDC1 242323Z 28007KT 31/01 A2977 RMK A01 T03110007  RH  014%=      5-min Rain = 0
KDC1 242324Z 28007KT 31/01 A2977 RMK A01 T03110014  RH  015%=      5-min Rain = 0
KDC1 242325Z 28011KT 31/02 A2977 RMK A01 T03130019  RH  015%=      5-min Rain = 0
KDC1 242326Z 29011KT 31/01 A2976 RMK A01 T03120005  RH  014%=      5-min Rain = 0
KDC1 242327Z 29012KT 31/02 A2976 RMK A01 T03110015  RH  015%=      5-min Rain = 0
KDC1 242328Z 28013KT 31/02 A2977 RMK A01 T03090020  RH  016%=      5-min Rain = 0
KDC1 242329Z 28014KT 31/02 A2976 RMK A01 T03070016  RH  016%=      5-min Rain = 0
KDC1 242330Z 28013KT 31/01 A2976 RMK A01 T03060012  RH  015%=      5-min Rain = 0
KDC1 242331Z 27015KT 31/01 A2976 RMK A01 T03070006  RH  015%=      5-min Rain = 0
KDC1 242332Z 25012KT 31/01 A2977 RMK A01 T03070009  RH  015%=      5-min Rain = 0
KDC1 242333Z 25011KT 31/01 A2976 RMK A01 T03070006  RH  014%=      5-min Rain = 0
KDC1 242334Z 24008KT 31/01 A2976 RMK A01 T03050013  RH  015%=      5-min Rain = 0
KDC1 242335Z 24008G15KT 30/02 A2976 RMK A01 T03030021  RH  017%=      5-min Rain = 0
KDC1 242336Z 25014KT 30/01 A2976 RMK A01 T03030012  RH  015%=      5-min Rain = 0
KDC1 242337Z 26014KT 30/01 A2976 RMK A01 T03020007  RH  015%=      5-min Rain = 0
KDC1 242338Z 26012KT 30/M00 A2976 RMK A01 T03021002  RH  014%=      5-min Rain = 0
KDC1 242339Z 26010KT 30/00 A2976 RMK A01 T03030000  RH  014%=      5-min Rain = 0
KDC1 242340Z 27013KT 31/M00 A2976 RMK A01 T03051004  RH  014%=      5-min Rain = 0
KDC1 242341Z 27014KT 31/M01 A2976 RMK A01 T03071005  RH  013%=      5-min Rain = 0
KDC1 242342Z 27013KT 31/M00 A2976 RMK A01 T03091004  RH  013%=      5-min Rain = 0
KDC1 242343Z 27013KT 31/M01 A2976 RMK A01 T03111005  RH  013%=      5-min Rain = 0
KDC1 242344Z 28013KT 31/00 A2976 RMK A01 T031100-0  RH  013%=      5-min Rain = 0
KDC1 242345Z 25011KT 31/01 A2976 RMK A01 T03100006  RH  014%=      5-min Rain = 0
KDC1 242346Z 25015KT 31/01 A2976 RMK A01 T03100006  RH  014%=      5-min Rain = 0
KDC1 242347Z 25013G18KT 31/M01 A2976 RMK A01 T03071007  RH  013%=      5-min Rain = 0
KDC1 242348Z 25011KT 31/M01 A2976 RMK A01 T03051007  RH  013%=      5-min Rain = 0
KDC1 242349Z 26010KT 30/M00 A2976 RMK A01 T03041002  RH  014%=      5-min Rain = 0
KDC1 242350Z 25011KT 30/01 A2976 RMK A01 T03040008  RH  015%=      5-min Rain = 0
KDC1 242351Z 25014KT 30/01 A2976 RMK A01 T03030011  RH  015%=      5-min Rain = 0
KDC1 242352Z 26015KT 30/M00 A2976 RMK A01 T03021001  RH  014%=      5-min Rain = 0
KDC1 242353Z 27015KT 31/M00 A2976 RMK A01 T03051003  RH  014%=      5-min Rain = 0
KDC1 242354Z 27014KT 31/M01 A2976 RMK A01 T03081005  RH  013%=      5-min Rain = 0
KDC1 242355Z 26014KT 31/00 A2976 RMK A01 T03080003  RH  014%=      5-min Rain = 0
KDC1 242356Z 26013KT 31/00 A2976 RMK A01 T03070001  RH  014%=      5-min Rain = 0
KDC1 242357Z 25011KT 30/00 A2975 RMK A01 T03040003  RH  014%=      5-min Rain = 0
KDC1 242358Z 25012KT 30/01 A2975 RMK A01 T03030011  RH  015%=      5-min Rain = 0
KDC1 242359Z 24009KT 30/03 A2975 RMK A01 T03000025  RH  017%=      5-min Rain = 0
KDC1 250000Z 25012G17KT 30/02 A2975 RMK A01 T02980023  RH  017%=      5-min Rain = 0
KDC1 250001Z 26012KT 30/00 A2975 RMK A01 T02980001  RH  015%=      5-min Rain = 0
KDC1 250002Z 27012KT 30/00 A2975 RMK A01 T03000001  RH  015%=      5-min Rain = 0
KDC1 250003Z 28014KT 30/01 A2975 RMK A01 T03030007  RH  015%=      5-min Rain = 0
KDC1 250004Z 28014KT 30/01 A2975 RMK A01 T03040013  RH  015%=      5-min Rain = 0
KDC1 250005Z 29013KT 30/00 A2975 RMK A01 T03030001  RH  014%=      5-min Rain = 0
KDC1 250006Z 29014KT 30/00 A2975 RMK A01 T03030004  RH  015%=      5-min Rain = 0
KDC1 250007Z 29013KT 30/02 A2975 RMK A01 T03030021  RH  016%=      5-min Rain = 0
KDC1 250008Z 28012KT 30/02 A2975 RMK A01 T03010020  RH  016%=      5-min Rain = 0
KDC1 250009Z 27010KT 30/02 A2975 RMK A01 T03010016  RH  016%=      5-min Rain = 0
KDC1 250010Z 27011G24KT 30/02 A2975 RMK A01 T03010020  RH  016%=      5-min Rain = 0
KDC1 250011Z 27017G23KT 30/01 A2975 RMK A01 T03020008  RH  015%=      5-min Rain = 0
KDC1 250012Z 27012KT 30/01 A2975 RMK A01 T03030009  RH  015%=      5-min Rain = 0
KDC1 250013Z 26013G18KT 30/01 A2975 RMK A01 T03030013  RH  016%=      5-min Rain = 0
KDC1 250014Z 26016KT 30/01 A2975 RMK A01 T03030005  RH  015%=      5-min Rain = 0
KDC1 250015Z 24011G16KT 30/01 A2975 RMK A01 T03030013  RH  016%=      5-min Rain = 0
KDC1 250016Z 24013KT 30/02 A2975 RMK A01 T03010018  RH  016%=      5-min Rain = 0
KDC1 250017Z 24012KT 30/01 A2975 RMK A01 T02980013  RH  016%=      5-min Rain = 0
KDC1 250018Z 25016KT 30/02 A2975 RMK A01 T02970016  RH  016%=      5-min Rain = 0
KDC1 250019Z 25013KT 30/01 A2975 RMK A01 T02960013  RH  016%=      5-min Rain = 0
KDC1 250020Z 25010KT 30/02 A2975 RMK A01 T02950017  RH  017%=      5-min Rain = 0
KDC1 250021Z 25009KT 29/03 A2975 RMK A01 T02940025  RH  018%=      5-min Rain = 0
KDC1 250022Z 25012KT 29/02 A2974 RMK A01 T02940024  RH  018%=      5-min Rain = 0
KDC1 250023Z 25013KT 29/02 A2974 RMK A01 T02920018  RH  017%=      5-min Rain = 0
KDC1 250024Z 25013KT 29/02 A2974 RMK A01 T02920015  RH  017%=      5-min Rain = 0
KDC1 250025Z 25015KT 29/01 A2974 RMK A01 T02930008  RH  016%=      5-min Rain = 0
KDC1 250026Z 27014KT 29/01 A2974 RMK A01 T02940007  RH  016%=      5-min Rain = 0
KDC1 250027Z 28013KT 30/01 A2974 RMK A01 T02960009  RH  016%=      5-min Rain = 0
KDC1 250028Z 28013KT 30/02 A2974 RMK A01 T02990015  RH  016%=      5-min Rain = 0
KDC1 250029Z 28014KT 30/02 A2974 RMK A01 T02970023  RH  017%=      5-min Rain = 0
KDC1 250030Z 29013KT 30/01 A2974 RMK A01 T02950014  RH  016%=      5-min Rain = 0
KDC1 250031Z 27011KT 30/01 A2974 RMK A01 T02950009  RH  016%=      5-min Rain = 0
KDC1 250032Z 27011KT 30/01 A2974 RMK A01 T02950012  RH  016%=      5-min Rain = 0
KDC1 250033Z 27012KT 30/01 A2974 RMK A01 T02950012  RH  016%=      5-min Rain = 0
KDC1 250034Z 26010KT 30/01 A2974 RMK A01 T02970009  RH  016%=      5-min Rain = 0
KDC1 250035Z 26010KT 30/01 A2974 RMK A01 T02980011  RH  016%=      5-min Rain = 0
KDC1 250036Z 26010KT 30/01 A2974 RMK A01 T02970007  RH  015%=      5-min Rain = 0
KDC1 250037Z 27012KT 30/M01 A2974 RMK A01 T02971007  RH  014%=      5-min Rain = 0
KDC1 250038Z 26010KT 30/M01 A2974 RMK A01 T02991013  RH  013%=      5-min Rain = 0
KDC1 250039Z 26010KT 30/M01 A2974 RMK A01 T03011010  RH  013%=      5-min Rain = 0
KDC1 250040Z 26015G20KT 30/M01 A2974 RMK A01 T03011008  RH  014%=      5-min Rain = 0
KDC1 250041Z 25015G20KT 30/M00 A2974 RMK A01 T02991003  RH  014%=      5-min Rain = 0
KDC1 250042Z 26013G18KT 30/M01 A2974 RMK A01 T02971005  RH  014%=      5-min Rain = 0
KDC1 250043Z 26017KT 30/M01 A2974 RMK A01 T02971009  RH  014%=      5-min Rain = 0
KDC1 250044Z 26017KT 30/M01 A2974 RMK A01 T02971010  RH  014%=      5-min Rain = 0
KDC1 250045Z 26018KT 30/M01 A2974 RMK A01 T02951010  RH  014%=      5-min Rain = 0
KDC1 250046Z 26017KT 29/M01 A2974 RMK A01 T02941012  RH  014%=      5-min Rain = 0
KDC1 250047Z 27017KT 30/M02 A2974 RMK A01 T02961016  RH  013%=      5-min Rain = 0
KDC1 250048Z 26015KT 30/M02 A2974 RMK A01 T02981016  RH  013%=      5-min Rain = 0
KDC1 250049Z 26012KT 30/M01 A2974 RMK A01 T02981010  RH  014%=      5-min Rain = 0
KDC1 250050Z 27019KT 30/M01 A2974 RMK A01 T02971012  RH  013%=      5-min Rain = 0
KDC1 250051Z 27018KT 30/M02 A2974 RMK A01 T02981020  RH  013%=      5-min Rain = 0
KDC1 250052Z 28018KT 30/M02 A2974 RMK A01 T02981015  RH  013%=      5-min Rain = 0
KDC1 250053Z 27013KT 30/M02 A2974 RMK A01 T02971017  RH  013%=      5-min Rain = 0
KDC1 250054Z 27013KT 30/M02 A2974 RMK A01 T02971019  RH  013%=      5-min Rain = 0
KDC1 250055Z 27012KT 30/M02 A2974 RMK A01 T02981017  RH  013%=      5-min Rain = 0
KDC1 250056Z 26014G19KT 30/M01 A2974 RMK A01 T02971014  RH  013%=      5-min Rain = 0
KDC1 250057Z 27012KT 30/M01 A2974 RMK A01 T02971014  RH  013%=      5-min Rain = 0
KDC1 250058Z 27013KT 30/M01 A2974 RMK A01 T02971012  RH  013%=      5-min Rain = 0
KDC1 250059Z 27012KT 30/M02 A2974 RMK A01 T02961017  RH  013%=      5-min Rain = 0
KDC1 250100Z 27013KT 30/M02 A2974 RMK A01 T02971018  RH  013%=      5-min Rain = 0
KDC1 250101Z 27015KT 30/M02 A2974 RMK A01 T02971017  RH  013%=      5-min Rain = 0
KDC1 250102Z 27013KT 30/M02 A2974 RMK A01 T02961015  RH  013%=      5-min Rain = 0
KDC1 250103Z 27013KT 30/M01 A2974 RMK A01 T02961010  RH  014%=      5-min Rain = 0
KDC1 250104Z 27011KT 29/M01 A2974 RMK A01 T02941010  RH  014%=      5-min Rain = 0
KDC1 250105Z 27009KT 29/M01 A2974 RMK A01 T02941007  RH  014%=      5-min Rain = 0
KDC1 250106Z 28010KT 29/M00 A2974 RMK A01 T02921004  RH  015%=      5-min Rain = 0
KDC1 250107Z 27010KT 29/M00 A2974 RMK A01 T02911003  RH  015%=      5-min Rain = 0
KDC1 250108Z 27010KT 29/M00 A2974 RMK A01 T02901001  RH  015%=      5-min Rain = 0
KDC1 250109Z 27010KT 29/M00 A2974 RMK A01 T02881003  RH  015%=      5-min Rain = 0
KDC1 250110Z 26008KT 29/M01 A2974 RMK A01 T02881005  RH  015%=      5-min Rain = 0
KDC1 250111Z 26010KT 29/M00 A2974 RMK A01 T02881003  RH  015%=      5-min Rain = 0
KDC1 250112Z 27008KT 29/M00 A2974 RMK A01 T02881001  RH  015%=      5-min Rain = 0
KDC1 250113Z 27010KT 29/M00 A2974 RMK A01 T02871004  RH  015%=      5-min Rain = 0
KDC1 250114Z 27008KT 29/M01 A2974 RMK A01 T02881005  RH  015%=      5-min Rain = 0
KDC1 250115Z 26009KT 29/M00 A2974 RMK A01 T02881003  RH  015%=      5-min Rain = 0
KDC1 250116Z 26010KT 29/M01 A2974 RMK A01 T02871005  RH  015%=      5-min Rain = 0
KDC1 250117Z 26012KT 29/M00 A2974 RMK A01 T02871004  RH  015%=      5-min Rain = 0
KDC1 250118Z 26013KT 29/M01 A2974 RMK A01 T02861006  RH  015%=      5-min Rain = 0
KDC1 250119Z 28012KT 29/M01 A2974 RMK A01 T02871009  RH  015%=      5-min Rain = 0
KDC1 250120Z 28013KT 29/M01 A2974 RMK A01 T02861005  RH  015%=      5-min Rain = 0
KDC1 250121Z 27012KT 29/M01 A2974 RMK A01 T02851005  RH  015%=      5-min Rain = 0
KDC1 250122Z 27011KT 28/M01 A2974 RMK A01 T02841008  RH  015%=      5-min Rain = 0
KDC1 250123Z 27011KT 28/M01 A2974 RMK A01 T02841009  RH  015%=      5-min Rain = 0
KDC1 250124Z 27011KT 28/M01 A2974 RMK A01 T02841009  RH  015%=      5-min Rain = 0
KDC1 250125Z 27011KT 28/M01 A2974 RMK A01 T02841009  RH  015%=      5-min Rain = 0
KDC1 250126Z 27011KT 28/M01 A2974 RMK A01 T02831008  RH  015%=      5-min Rain = 0
KDC1 250127Z 26010KT 28/M01 A2974 RMK A01 T02831007  RH  015%=      5-min Rain = 0
KDC1 250128Z 26008KT 28/M01 A2974 RMK A01 T02821008  RH  015%=      5-min Rain = 0
KDC1 250129Z 26008KT 28/M01 A2974 RMK A01 T02821006  RH  015%=      5-min Rain = 0
KDC1 250130Z 25008KT 28/00 A2974 RMK A01 T028200-0  RH  016%=      5-min Rain = 0
KDC1 250131Z 28011KT 28/M00 A2974 RMK A01 T02811003  RH  016%=      5-min Rain = 0
KDC1 250132Z 27010KT 28/M00 A2974 RMK A01 T02791002  RH  016%=      5-min Rain = 0
KDC1 250133Z 28010KT 28/00 A2975 RMK A01 T027700-0  RH  016%=      5-min Rain = 0
KDC1 250134Z 28011KT 28/M00 A2975 RMK A01 T02751002  RH  016%=      5-min Rain = 0
KDC1 250135Z 27011KT 27/M00 A2975 RMK A01 T02741002  RH  017%=      5-min Rain = 0
KDC1 250136Z 27012KT 27/M00 A2975 RMK A01 T02731003  RH  016%=      5-min Rain = 0
KDC1 250137Z 27014KT 27/M01 A2975 RMK A01 T02731012  RH  015%=      5-min Rain = 0
KDC1 250138Z 28013KT 28/M02 A2975 RMK A01 T02761015  RH  015%=      5-min Rain = 0
KDC1 250139Z 27010KT 28/M01 A2975 RMK A01 T02781014  RH  015%=      5-min Rain = 0
KDC1 250140Z 26009KT 28/M01 A2975 RMK A01 T02771012  RH  015%=      5-min Rain = 0
KDC1 250141Z 27009KT 28/M01 A2975 RMK A01 T02761014  RH  015%=      5-min Rain = 0
KDC1 250142Z 26008KT 28/M02 A2975 RMK A01 T02771016  RH  015%=      5-min Rain = 0
KDC1 250143Z 26008KT 28/M02 A2975 RMK A01 T02771015  RH  015%=      5-min Rain = 0
KDC1 250144Z 26008KT 28/M01 A2975 RMK A01 T02771011  RH  015%=      5-min Rain = 0
KDC1 250145Z 27008KT 28/M01 A2975 RMK A01 T02761009  RH  016%=      5-min Rain = 0
KDC1 250146Z 27011KT 28/M01 A2976 RMK A01 T02751013  RH  015%=      5-min Rain = 0
KDC1 250147Z 27009KT 27/M02 A2976 RMK A01 T02741016  RH  015%=      5-min Rain = 0
KDC1 250148Z 27008KT 27/M01 A2976 RMK A01 T02741013  RH  015%=      5-min Rain = 0
KDC1 250149Z 27009KT 27/M01 A2976 RMK A01 T02711013  RH  015%=      5-min Rain = 0
KDC1 250150Z 27008KT 27/M01 A2976 RMK A01 T02691013  RH  016%=      5-min Rain = 0
KDC1 250151Z 27009KT 27/M01 A2976 RMK A01 T02671012  RH  016%=      5-min Rain = 0
KDC1 250152Z 26008KT 27/M01 A2976 RMK A01 T02661011  RH  016%=      5-min Rain = 0
KDC1 250153Z 27008KT 27/M01 A2976 RMK A01 T02651013  RH  016%=      5-min Rain = 0
KDC1 250154Z 26006KT 26/M01 A2976 RMK A01 T02641014  RH  016%=      5-min Rain = 0
KDC1 250155Z 26006KT 26/M01 A2976 RMK A01 T02631013  RH  016%=      5-min Rain = 0
KDC1 250156Z 26007KT 26/M01 A2976 RMK A01 T02621011  RH  017%=      5-min Rain = 0
KDC1 250157Z 26008KT 26/M01 A2976 RMK A01 T02621011  RH  017%=      5-min Rain = 0
KDC1 250158Z 26008KT 26/M01 A2976 RMK A01 T02631009  RH  017%=      5-min Rain = 0
KDC1 250159Z 26008KT 26/M01 A2976 RMK A01 T02621008  RH  017%=      5-min Rain = 0
KDC1 250200Z 26007KT 26/M01 A2976 RMK A01 T02611007  RH  017%=      5-min Rain = 0
KDC1 250201Z 26009KT 26/M01 A2976 RMK A01 T02601009  RH  017%=      5-min Rain = 0
KDC1 250202Z 26008KT 26/M01 A2976 RMK A01 T02611013  RH  016%=      5-min Rain = 0
KDC1 250203Z 27009KT 26/M01 A2976 RMK A01 T02621013  RH  016%=      5-min Rain = 0
KDC1 250204Z 27008KT 26/M01 A2976 RMK A01 T02621014  RH  016%=      5-min Rain = 0
KDC1 250205Z 27009KT 26/M02 A2976 RMK A01 T02611017  RH  016%=      5-min Rain = 0
KDC1 250206Z 27009KT 26/M02 A2976 RMK A01 T02591018  RH  016%=      5-min Rain = 0
KDC1 250207Z 27009KT 26/M02 A2976 RMK A01 T02571018  RH  016%=      5-min Rain = 0
KDC1 250208Z 27008KT 26/M02 A2976 RMK A01 T02561017  RH  016%=      5-min Rain = 0
KDC1 250209Z 27008KT 25/M02 A2976 RMK A01 T02541015  RH  017%=      5-min Rain = 0
KDC1 250210Z 27010KT 25/M01 A2976 RMK A01 T02531014  RH  017%=      5-min Rain = 0
KDC1 250211Z 27012KT 25/M02 A2976 RMK A01 T02531018  RH  017%=      5-min Rain = 0
KDC1 250212Z 27011KT 26/M02 A2976 RMK A01 T02581019  RH  016%=      5-min Rain = 0
KDC1 250213Z 27010KT 26/M02 A2976 RMK A01 T02591018  RH  016%=      5-min Rain = 0
KDC1 250214Z 27010KT 26/M02 A2976 RMK A01 T02581017  RH  016%=      5-min Rain = 0
KDC1 250215Z 27010KT 26/M02 A2976 RMK A01 T02571017  RH  016%=      5-min Rain = 0
KDC1 250216Z 27010KT 26/M02 A2976 RMK A01 T02561016  RH  017%=      5-min Rain = 0
KDC1 250217Z 27009KT 26/M01 A2976 RMK A01 T02551012  RH  017%=      5-min Rain = 0
KDC1 250218Z 27009KT 25/M01 A2976 RMK A01 T02521010  RH  018%=      5-min Rain = 0
KDC1 250219Z 27009KT 25/M01 A2976 RMK A01 T02491009  RH  018%=      5-min Rain = 0
KDC1 250220Z 27008KT 25/M01 A2976 RMK A01 T02461007  RH  019%=      5-min Rain = 0
KDC1 250221Z 27009KT 24/M01 A2976 RMK A01 T02431005  RH  019%=      5-min Rain = 0
KDC1 250222Z 27008KT 24/M00 A2977 RMK A01 T02401003  RH  020%=      5-min Rain = 0
KDC1 250223Z 27008KT 24/M00 A2977 RMK A01 T02371001  RH  021%=      5-min Rain = 0
KDC1 250224Z 26008KT 24/M00 A2976 RMK A01 T02351001  RH  021%=      5-min Rain = 0
KDC1 250225Z 27007KT 23/M00 A2976 RMK A01 T02331003  RH  021%=      5-min Rain = 0
KDC1 250226Z 27008KT 23/M01 A2976 RMK A01 T02331006  RH  020%=      5-min Rain = 0
KDC1 250227Z 27008KT 23/M01 A2976 RMK A01 T02341006  RH  020%=      5-min Rain = 0
KDC1 250228Z 27007KT 23/M01 A2976 RMK A01 T02341005  RH  021%=      5-min Rain = 0
KDC1 250229Z 27007KT 23/M00 A2976 RMK A01 T02331001  RH  021%=      5-min Rain = 0
KDC1 250230Z 27006KT 23/00 A2976 RMK A01 T02300003  RH  022%=      5-min Rain = 0
KDC1 250231Z 28007KT 23/01 A2976 RMK A01 T02260014  RH  025%=      5-min Rain = 0
KDC1 250232Z 27007KT 22/02 A2976 RMK A01 T02220015  RH  025%=      5-min Rain = 0
KDC1 250233Z 27007KT 22/02 A2976 RMK A01 T02190015  RH  026%=      5-min Rain = 0
KDC1 250234Z 28007KT 22/02 A2977 RMK A01 T02170016  RH  026%=      5-min Rain = 0
KDC1 250235Z 28007KT 22/02 A2977 RMK A01 T02150019  RH  027%=      5-min Rain = 0
KDC1 250236Z 28007KT 21/02 A2977 RMK A01 T02120022  RH  028%=      5-min Rain = 0
KDC1 250237Z 27007KT 21/02 A2977 RMK A01 T02100024  RH  029%=      5-min Rain = 0
KDC1 250238Z 27007KT 21/02 A2977 RMK A01 T02080024  RH  030%=      5-min Rain = 0
KDC1 250239Z 27007KT 21/02 A2977 RMK A01 T02070024  RH  030%=      5-min Rain = 0
KDC1 250240Z 27008KT 21/03 A2977 RMK A01 T02060025  RH  030%=      5-min Rain = 0
KDC1 250241Z 27007KT 21/02 A2977 RMK A01 T02060024  RH  030%=      5-min Rain = 0
KDC1 250242Z 26007KT 21/02 A2977 RMK A01 T02060021  RH  029%=      5-min Rain = 0
KDC1 250243Z 26006KT 21/01 A2977 RMK A01 T02080014  RH  027%=      5-min Rain = 0
KDC1 250244Z 26007KT 21/01 A2977 RMK A01 T02110013  RH  027%=      5-min Rain = 0
KDC1 250245Z 26006KT 21/01 A2977 RMK A01 T02130012  RH  026%=      5-min Rain = 0
KDC1 250246Z 26005KT 21/02 A2977 RMK A01 T02140017  RH  027%=      5-min Rain = 0
KDC1 250247Z 26005KT 21/04 A2977 RMK A01 T02100038  RH  032%=      5-min Rain = 0
KDC1 250248Z 26005KT 20/04 A2977 RMK A01 T02040039  RH  034%=      5-min Rain = 0
KDC1 250249Z 26005KT 20/04 A2977 RMK A01 T02000039  RH  035%=      5-min Rain = 0
KDC1 250250Z 27006KT 20/04 A2977 RMK A01 T01970039  RH  035%=      5-min Rain = 0
KDC1 250251Z 27006KT 20/04 A2977 RMK A01 T01950038  RH  035%=      5-min Rain = 0
KDC1 250252Z 27006KT 19/04 A2977 RMK A01 T01940039  RH  036%=      5-min Rain = 0
KDC1 250253Z 26006KT 19/03 A2977 RMK A01 T01930028  RH  033%=      5-min Rain = 0
KDC1 250254Z 25005KT 20/01 A2977 RMK A01 T01960012  RH  029%=      5-min Rain = 0
KDC1 250255Z 26006KT 20/00 A2977 RMK A01 T02020004  RH  026%=      5-min Rain = 0
KDC1 250256Z 26005KT 21/02 A2977 RMK A01 T02070015  RH  028%=      5-min Rain = 0
KDC1 250257Z 26005KT 21/03 A2977 RMK A01 T02070025  RH  030%=      5-min Rain = 0
KDC1 250258Z 26005KT 21/03 A2977 RMK A01 T02050034  RH  032%=      5-min Rain = 0
KDC1 250259Z 27005KT 20/04 A2977 RMK A01 T02000041  RH  035%=      5-min Rain = 0
KDC1 250300Z 27004KT 20/05 A2977 RMK A01 T01950046  RH  037%=      5-min Rain = 0
KDC1 250301Z 27004KT 19/05 A2977 RMK A01 T01910051  RH  040%=      5-min Rain = 0
KDC1 250302Z 26005KT 19/05 A2977 RMK A01 T01880054  RH  041%=      5-min Rain = 0
KDC1 250303Z 26005KT 19/06 A2977 RMK A01 T01850056  RH  043%=      5-min Rain = 0
KDC1 250304Z 27005KT 18/06 A2977 RMK A01 T01830056  RH  043%=      5-min Rain = 0
KDC1 250305Z 27006KT 18/06 A2977 RMK A01 T01810055  RH  044%=      5-min Rain = 0
KDC1 250306Z 27005KT 18/06 A2977 RMK A01 T01790055  RH  044%=      5-min Rain = 0
KDC1 250307Z 27005KT 18/06 A2977 RMK A01 T01780055  RH  044%=      5-min Rain = 0
KDC1 250308Z 27006KT 18/05 A2977 RMK A01 T01780054  RH  044%=      5-min Rain = 0
KDC1 250309Z 27006KT 18/05 A2977 RMK A01 T01780054  RH  044%=      5-min Rain = 0
KDC1 250310Z 27006KT 18/05 A2977 RMK A01 T01770053  RH  044%=      5-min Rain = 0
KDC1 250311Z 27006KT 18/05 A2977 RMK A01 T01770052  RH  043%=      5-min Rain = 0
KDC1 250312Z 28005KT 18/05 A2977 RMK A01 T01770051  RH  043%=      5-min Rain = 0
KDC1 250313Z 27005KT 18/05 A2977 RMK A01 T01770051  RH  043%=      5-min Rain = 0
KDC1 250314Z 27006KT 18/05 A2977 RMK A01 T01770051  RH  043%=      5-min Rain = 0
KDC1 250315Z 29006KT 18/05 A2977 RMK A01 T01760049  RH  043%=      5-min Rain = 0
KDC1 250316Z 29006KT 18/05 A2977 RMK A01 T01760047  RH  043%=      5-min Rain = 0
KDC1 250317Z 29006KT 18/05 A2977 RMK A01 T01750046  RH  042%=      5-min Rain = 0
KDC1 250318Z 29006KT 17/04 A2977 RMK A01 T01740044  RH  042%=      5-min Rain = 0
KDC1 250319Z 28006KT 17/04 A2977 RMK A01 T01730040  RH  041%=      5-min Rain = 0
KDC1 250320Z 28007KT 17/03 A2977 RMK A01 T01730033  RH  039%=      5-min Rain = 0
KDC1 250321Z 28007KT 18/03 A2977 RMK A01 T01750034  RH  039%=      5-min Rain = 0
KDC1 250322Z 28007KT 18/04 A2977 RMK A01 T01750035  RH  039%=      5-min Rain = 0
KDC1 250323Z 28007KT 18/04 A2977 RMK A01 T01750036  RH  039%=      5-min Rain = 0
KDC1 250324Z 28007KT 18/04 A2977 RMK A01 T01750038  RH  040%=      5-min Rain = 0
KDC1 250325Z 28007KT 17/04 A2977 RMK A01 T01730038  RH  041%=      5-min Rain = 0
KDC1 250326Z 29007KT 17/04 A2977 RMK A01 T01720036  RH  040%=      5-min Rain = 0
KDC1 250327Z 28007KT 17/03 A2977 RMK A01 T01710031  RH  039%=      5-min Rain = 0
KDC1 250328Z 28007KT 17/03 A2977 RMK A01 T01710027  RH  038%=      5-min Rain = 0
KDC1 250329Z 28007KT 17/02 A2977 RMK A01 T01730021  RH  036%=      5-min Rain = 0
KDC1 250330Z 28007KT 18/02 A2977 RMK A01 T01770015  RH  034%=      5-min Rain = 0
KDC1 250331Z 28006KT 18/02 A2977 RMK A01 T01800016  RH  033%=      5-min Rain = 0
KDC1 250332Z 27007KT 18/02 A2977 RMK A01 T01810015  RH  033%=      5-min Rain = 0
KDC1 250333Z 27008KT 18/01 A2977 RMK A01 T01840010  RH  031%=      5-min Rain = 0
KDC1 250334Z 26007KT 19/01 A2977 RMK A01 T01870006  RH  030%=      5-min Rain = 0
KDC1 250335Z 27007KT 19/00 A2977 RMK A01 T01930001  RH  028%=      5-min Rain = 0
KDC1 250336Z 27008KT 20/01 A2977 RMK A01 T01960008  RH  028%=      5-min Rain = 0
KDC1 250337Z 27008KT 20/01 A2977 RMK A01 T01960011  RH  029%=      5-min Rain = 0
KDC1 250338Z 28009KT 20/01 A2977 RMK A01 T01950014  RH  030%=      5-min Rain = 0
KDC1 250339Z 28009KT 19/02 A2977 RMK A01 T01920015  RH  031%=      5-min Rain = 0
KDC1 250340Z 28009KT 19/02 A2977 RMK A01 T01890017  RH  032%=      5-min Rain = 0
KDC1 250341Z 28009KT 19/02 A2977 RMK A01 T01850018  RH  033%=      5-min Rain = 0
KDC1 250342Z 28010KT 18/02 A2978 RMK A01 T01820019  RH  034%=      5-min Rain = 0
KDC1 250343Z 28009KT 18/02 A2978 RMK A01 T01790021  RH  034%=      5-min Rain = 0
KDC1 250344Z 29010KT 18/02 A2978 RMK A01 T01770020  RH  035%=      5-min Rain = 0
KDC1 250345Z 29009KT 18/02 A2978 RMK A01 T01770015  RH  034%=      5-min Rain = 0
KDC1 250346Z 29010KT 18/01 A2978 RMK A01 T01770013  RH  033%=      5-min Rain = 0
KDC1 250347Z 28009KT 18/01 A2978 RMK A01 T01770012  RH  033%=      5-min Rain = 0
KDC1 250348Z 28010KT 18/01 A2978 RMK A01 T01770011  RH  033%=      5-min Rain = 0
KDC1 250349Z 28011KT 18/01 A2978 RMK A01 T01770010  RH  032%=      5-min Rain = 0
KDC1 250350Z 28009KT 18/01 A2978 RMK A01 T01770006  RH  031%=      5-min Rain = 0
KDC1 250351Z 28008KT 18/00 A2978 RMK A01 T01770002  RH  031%=      5-min Rain = 0
KDC1 250352Z 28009KT 18/00 A2978 RMK A01 T01790001  RH  030%=      5-min Rain = 0
KDC1 250353Z 28009KT 18/00 A2978 RMK A01 T01790001  RH  030%=      5-min Rain = 0
KDC1 250354Z 28010KT 18/00 A2978 RMK A01 T01780002  RH  030%=      5-min Rain = 0
KDC1 250355Z 28010KT 18/00 A2978 RMK A01 T01770002  RH  031%=      5-min Rain = 0
KDC1 250356Z 29011KT 18/00 A2978 RMK A01 T01780001  RH  030%=      5-min Rain = 0
KDC1 250357Z 29011KT 18/00 A2978 RMK A01 T01790001  RH  030%=      5-min Rain = 0
KDC1 250358Z 28009KT 18/00 A2978 RMK A01 T01800001  RH  030%=      5-min Rain = 0
KDC1 250359Z 29009KT 18/00 A2978 RMK A01 T01800002  RH  030%=      5-min Rain = 0
KDC1 250400Z 29010KT 18/00 A2978 RMK A01 T01780003  RH  031%=      5-min Rain = 0
KDC1 250401Z 29009KT 18/00 A2978 RMK A01 T01760004  RH  031%=      5-min Rain = 0
KDC1 250402Z 28009KT 17/00 A2978 RMK A01 T01740003  RH  031%=      5-min Rain = 0
KDC1 250403Z 29008KT 17/00 A2978 RMK A01 T01740004  RH  032%=      5-min Rain = 0
KDC1 250404Z 28009KT 17/00 A2978 RMK A01 T01730004  RH  032%=      5-min Rain = 0
KDC1 250405Z 28008KT 17/01 A2978 RMK A01 T01710005  RH  032%=      5-min Rain = 0
KDC1 250406Z 29007KT 17/01 A2978 RMK A01 T01700005  RH  033%=      5-min Rain = 0
KDC1 250407Z 28009KT 17/01 A2978 RMK A01 T01690010  RH  034%=      5-min Rain = 0
KDC1 250408Z 28009KT 17/01 A2978 RMK A01 T01670011  RH  035%=      5-min Rain = 0
KDC1 250409Z 28009KT 17/01 A2978 RMK A01 T01650011  RH  035%=      5-min Rain = 0
KDC1 250410Z 29009KT 16/01 A2978 RMK A01 T01640013  RH  036%=      5-min Rain = 0
KDC1 250411Z 29008KT 16/01 A2978 RMK A01 T01630013  RH  036%=      5-min Rain = 0
KDC1 250412Z 29009KT 16/01 A2978 RMK A01 T01620013  RH  036%=      5-min Rain = 0
KDC1 250413Z 28009KT 16/01 A2978 RMK A01 T01610010  RH  036%=      5-min Rain = 0
KDC1 250414Z 28009KT 16/01 A2978 RMK A01 T01610009  RH  036%=      5-min Rain = 0
KDC1 250415Z 29009KT 16/01 A2978 RMK A01 T01600010  RH  036%=      5-min Rain = 0
KDC1 250416Z 29009KT 16/01 A2978 RMK A01 T01590008  RH  036%=      5-min Rain = 0
KDC1 250417Z 28009KT 16/01 A2978 RMK A01 T01590009  RH  036%=      5-min Rain = 0
KDC1 250418Z 28009KT 16/01 A2978 RMK A01 T01580013  RH  037%=      5-min Rain = 0
KDC1 250419Z 28010KT 16/01 A2978 RMK A01 T01570014  RH  038%=      5-min Rain = 0
KDC1 250420Z 28009KT 16/01 A2978 RMK A01 T01560014  RH  038%=      5-min Rain = 0
KDC1 250421Z 28008KT 16/02 A2978 RMK A01 T01550015  RH  039%=      5-min Rain = 0
KDC1 250422Z 28009KT 15/02 A2978 RMK A01 T01540015  RH  039%=      5-min Rain = 0
KDC1 250423Z 28010KT 15/02 A2978 RMK A01 T01540017  RH  039%=      5-min Rain = 0
KDC1 250424Z 29011KT 15/02 A2978 RMK A01 T01530015  RH  039%=      5-min Rain = 0
KDC1 250425Z 29010KT 15/01 A2978 RMK A01 T01540008  RH  037%=      5-min Rain = 0
KDC1 250426Z 29010KT 16/00 A2978 RMK A01 T01570003  RH  035%=      5-min Rain = 0
KDC1 250427Z 29010KT 16/00 A2978 RMK A01 T01610001  RH  034%=      5-min Rain = 0
KDC1 250428Z 28009KT 16/00 A2978 RMK A01 T01630000  RH  033%=      5-min Rain = 0
KDC1 250429Z 27009KT 16/00 A2978 RMK A01 T01640004  RH  034%=      5-min Rain = 0
KDC1 250430Z 27010KT 16/01 A2978 RMK A01 T01640006  RH  034%=      5-min Rain = 0
KDC1 250431Z 28011KT 17/00 A2978 RMK A01 T01650003  RH  033%=      5-min Rain = 0
KDC1 250432Z 28011KT 17/M00 A2978 RMK A01 T01681002  RH  031%=      5-min Rain = 0
KDC1 250433Z 29010KT 17/M01 A2978 RMK A01 T01711006  RH  030%=      5-min Rain = 0
KDC1 250434Z 29010KT 18/M01 A2978 RMK A01 T01751010  RH  028%=      5-min Rain = 0
KDC1 250435Z 29010KT 18/M01 A2978 RMK A01 T01771010  RH  028%=      5-min Rain = 0
KDC1 250436Z 27008KT 18/M01 A2978 RMK A01 T01781008  RH  028%=      5-min Rain = 0
KDC1 250437Z 28010KT 18/M01 A2978 RMK A01 T01771007  RH  029%=      5-min Rain = 0
KDC1 250438Z 28010KT 18/M01 A2978 RMK A01 T01771008  RH  029%=      5-min Rain = 0
KDC1 250439Z 28010KT 18/M01 A2978 RMK A01 T01761008  RH  029%=      5-min Rain = 0
KDC1 250440Z 28010KT 17/M01 A2978 RMK A01 T01741007  RH  029%=      5-min Rain = 0
KDC1 250441Z 29010KT 17/M01 A2978 RMK A01 T01721008  RH  029%=      5-min Rain = 0
KDC1 250442Z 29010KT 17/M01 A2978 RMK A01 T01721012  RH  029%=      5-min Rain = 0
KDC1 250443Z 28009KT 17/M01 A2978 RMK A01 T01741014  RH  028%=      5-min Rain = 0
KDC1 250444Z 28009KT 18/M01 A2978 RMK A01 T01751012  RH  028%=      5-min Rain = 0
KDC1 250445Z 28011KT 17/M01 A2978 RMK A01 T01741009  RH  029%=      5-min Rain = 0
KDC1 250446Z 29011KT 17/M01 A2978 RMK A01 T01731012  RH  028%=      5-min Rain = 0
KDC1 250447Z 29010KT 18/M02 A2978 RMK A01 T01751015  RH  027%=      5-min Rain = 0
KDC1 250448Z 29011KT 18/M02 A2978 RMK A01 T01761015  RH  027%=      5-min Rain = 0
KDC1 250449Z 29010KT 18/M02 A2978 RMK A01 T01771015  RH  027%=      5-min Rain = 0
KDC1 250450Z 29010KT 18/M02 A2978 RMK A01 T01781015  RH  027%=      5-min Rain = 0
KDC1 250451Z 29008KT 18/M01 A2978 RMK A01 T01781014  RH  027%=      5-min Rain = 0
KDC1 250452Z 29008KT 18/M01 A2978 RMK A01 T01781013  RH  027%=      5-min Rain = 0
KDC1 250453Z 29009KT 18/M01 A2978 RMK A01 T01761012  RH  028%=      5-min Rain = 0
KDC1 250454Z 29008KT 17/M01 A2978 RMK A01 T01741010  RH  028%=      5-min Rain = 0
KDC1 250455Z 30008KT 17/M01 A2978 RMK A01 T01721010  RH  029%=      5-min Rain = 0
KDC1 250456Z 30008KT 17/M01 A2978 RMK A01 T01701009  RH  030%=      5-min Rain = 0
KDC1 250457Z 29007KT 17/M01 A2978 RMK A01 T01671008  RH  030%=      5-min Rain = 0
KDC1 250458Z 29007KT 17/M01 A2978 RMK A01 T01651005  RH  032%=      5-min Rain = 0
KDC1 250459Z 29007KT 16/00 A2978 RMK A01 T01630001  RH  033%=      5-min Rain = 0

Page generated in 0.1531 seconds.